Wetterdaten: Sonntag, 19.05.2019
Datum Zeit Temp. Aussen Temp. o. S. +5cm Feuchte Auss Luftdruck Regen Sonnenschein Regendauer Solar Windben Empfang
19.05.2019 00:00 15,6 C 12,8 C 12,8 C 85 % 1006,8 hPa 0,0 l/m 0 min 2 min 0 W/m 0,0 km/h (0 Bft) 97,87 %
19.05.2019 00:02 15,6 C 12,8 C 12,8 C 86 % 1006,8 hPa 0,0 l/m 0 min 2 min 0 W/m 0,0 km/h (0 Bft) 100,00 %
19.05.2019 00:04 15,6 C 12,8 C 12,8 C 86 % 1006,8 hPa 0,0 l/m 0 min 2 min 0 W/m 3,2 km/h (1 Bft) 95,74 %
19.05.2019 00:08 15,6 C 12,8 C 12,8 C 86 % 1006,7 hPa 0,0 l/m 0 min 4 min 0 W/m 3,2 km/h (1 Bft) 94,57 %
19.05.2019 00:10 15,5 C 12,8 C 12,8 C 87 % 1006,7 hPa 0,0 l/m 0 min 2 min 0 W/m 6,4 km/h (2 Bft) 95,74 %
19.05.2019 00:12 15,5 C 12,8 C 12,8 C 87 % 1006,8 hPa 0,0 l/m 0 min 2 min 0 W/m 6,4 km/h (2 Bft) 93,88 %
19.05.2019 00:14 15,4 C 12,8 C 12,8 C 87 % 1006,8 hPa 0,0 l/m 0 min 2 min 0 W/m 6,4 km/h (2 Bft) 95,74 %
19.05.2019 00:16 15,4 C 12,8 C 12,8 C 87 % 1006,8 hPa 0,0 l/m 0 min 2 min 0 W/m 9,7 km/h (2 Bft) 95,65 %
19.05.2019 00:18 15,4 C 12,8 C 12,2 C 87 % 1006,8 hPa 0,0 l/m 0 min 0 min 0 W/m 9,7 km/h (2 Bft) 95,24 %
19.05.2019 00:20 15,3 C 12,8 C 12,2 C 88 % 1006,7 hPa 0,0 l/m 0 min 2 min 0 W/m 6,4 km/h (2 Bft) 95,83 %
19.05.2019 00:22 15,3 C 12,8 C 12,8 C 88 % 1006,7 hPa 0,0 l/m 0 min 2 min 0 W/m 0,0 km/h (0 Bft) 95,74 %
19.05.2019 00:24 15,3 C 12,8 C 12,2 C 88 % 1006,7 hPa 0,0 l/m 0 min 0 min 0 W/m 6,4 km/h (2 Bft) 89,80 %
19.05.2019 00:26 15,2 C 12,8 C 12,2 C 88 % 1006,6 hPa 0,0 l/m 0 min 0 min 0 W/m 0,0 km/h (0 Bft) 93,88 %
19.05.2019 00:28 15,2 C 12,8 C 12,8 C 88 % 1006,6 hPa 0,0 l/m 0 min 0 min 0 W/m 0,0 km/h (0 Bft) 91,30 %
19.05.2019 00:30 15,2 C 12,8 C 12,8 C 88 % 1006,6 hPa 0,0 l/m 0 min 0 min 0 W/m 0,0 km/h (0 Bft) 91,49 %
19.05.2019 00:32 15,2 C 12,8 C 12,8 C 88 % 1006,5 hPa 0,0 l/m 0 min 0 min 0 W/m 0,0 km/h (0 Bft) 92,86 %
19.05.2019 00:34 15,2 C 12,8 C 12,8 C 88 % 1006,6 hPa 0,0 l/m 0 min 0 min 0 W/m 0,0 km/h (0 Bft) 93,88 %
19.05.2019 00:36 15,2 C 12,8 C 12,8 C 89 % 1006,6 hPa 0,0 l/m 0 min 0 min 0 W/m 0,0 km/h (0 Bft) 93,88 %
19.05.2019 00:38 15,1 C 12,8 C 12,8 C 89 % 1006,6 hPa 0,0 l/m 0 min 2 min 0 W/m 3,2 km/h (1 Bft) 93,75 %
19.05.2019 00:40 15,1 C 12,8 C 12,8 C 89 % 1006,7 hPa 0,2 l/m 0 min 2 min 0 W/m 0,0 km/h (0 Bft) 91,30 %
19.05.2019 00:42 15,1 C 12,8 C 12,8 C 89 % 1006,7 hPa 0,0 l/m 0 min 2 min 0 W/m 0,0 km/h (0 Bft) 93,62 %
19.05.2019 00:44 15,1 C 12,8 C 12,8 C 89 % 1006,7 hPa 0,0 l/m 0 min 0 min 0 W/m 0,0 km/h (0 Bft) 95,24 %
19.05.2019 00:46 15,0 C 12,8 C 12,8 C 89 % 1006,7 hPa 0,0 l/m 0 min 0 min 0 W/m 0,0 km/h (0 Bft) 89,80 %
19.05.2019 00:48 15,0 C 12,8 C 12,8 C 90 % 1006,8 hPa 0,0 l/m 0 min 0 min 0 W/m 3,2 km/h (1 Bft) 93,88 %
19.05.2019 00:50 15,0 C 12,8 C 12,8 C 90 % 1006,8 hPa 0,0 l/m 0 min 0 min 0 W/m 3,2 km/h (1 Bft) 93,75 %
19.05.2019 00:52 15,0 C 12,8 C 12,8 C 90 % 1006,8 hPa 0,0 l/m 0 min 0 min 0 W/m 0,0 km/h (0 Bft) 93,48 %
19.05.2019 00:54 14,9 C 12,8 C 12,8 C 90 % 1006,8 hPa 0,0 l/m 0 min 0 min 0 W/m 0,0 km/h (0 Bft) 91,49 %
19.05.2019 00:56 14,9 C 12,8 C 12,8 C 90 % 1006,8 hPa 0,0 l/m 0 min 0 min 0 W/m 0,0 km/h (0 Bft) 95,74 %
19.05.2019 00:58 14,9 C 12,8 C 12,8 C 90 % 1006,8 hPa 0,0 l/m 0 min 0 min 0 W/m 6,4 km/h (2 Bft) 95,35 %
19.05.2019 01:00 14,9 C 12,8 C 12,8 C 90 % 1006,7 hPa 0,0 l/m 0 min 0 min 0 W/m 3,2 km/h (1 Bft) 95,74 %
19.05.2019 01:02 14,9 C 12,8 C 12,8 C 90 % 1006,7 hPa 0,0 l/m 0 min 2 min 0 W/m 0,0 km/h (0 Bft) 96,00 %
19.05.2019 01:04 14,8 C 12,8 C 12,8 C 90 % 1006,7 hPa 0,0 l/m 0 min 2 min 0 W/m 0,0 km/h (0 Bft) 95,74 %
19.05.2019 01:06 14,8 C 12,8 C 12,8 C 90 % 1006,7 hPa 0,0 l/m 0 min 2 min 0 W/m 0,0 km/h (0 Bft) 95,74 %
19.05.2019 01:08 14,8 C 12,8 C 12,8 C 91 % 1006,7 hPa 0,2 l/m 0 min 2 min 0 W/m 0,0 km/h (0 Bft) 95,74 %
19.05.2019 01:10 14,8 C 12,8 C 12,8 C 91 % 1006,7 hPa 0,0 l/m 0 min 2 min 0 W/m 0,0 km/h (0 Bft) 95,12 %
19.05.2019 01:12 14,8 C 12,8 C 12,8 C 91 % 1006,6 hPa 0,2 l/m 0 min 2 min 0 W/m 0,0 km/h (0 Bft) 97,96 %
19.05.2019 01:14 14,7 C 12,8 C 12,8 C 91 % 1006,6 hPa 0,0 l/m 0 min 2 min 0 W/m 0,0 km/h (0 Bft) 95,74 %
19.05.2019 01:16 14,7 C 12,8 C 12,8 C 91 % 1006,5 hPa 0,0 l/m 0 min 2 min 0 W/m 0,0 km/h (0 Bft) 95,92 %
19.05.2019 01:18 14,7 C 12,8 C 12,8 C 91 % 1006,5 hPa 0,0 l/m 0 min 2 min 0 W/m 0,0 km/h (0 Bft) 100,00 %
19.05.2019 01:20 14,7 C 12,8 C 12,8 C 91 % 1006,4 hPa 0,2 l/m 0 min 2 min 0 W/m 0,0 km/h (0 Bft) 100,00 %
19.05.2019 01:22 14,7 C 12,8 C 12,8 C 91 % 1006,4 hPa 0,0 l/m 0 min 2 min 0 W/m 0,0 km/h (0 Bft) 97,87 %
19.05.2019 01:24 14,7 C 12,8 C 12,8 C 91 % 1006,4 hPa 0,0 l/m 0 min 2 min 0 W/m 0,0 km/h (0 Bft) 100,00 %
19.05.2019 01:26 14,6 C 12,8 C 12,8 C 91 % 1006,4 hPa 0,0 l/m 0 min 2 min 0 W/m 0,0 km/h (0 Bft) 100,00 %
19.05.2019 01:28 14,6 C 12,8 C 12,8 C 91 % 1006,3 hPa 0,0 l/m 0 min 2 min 0 W/m 0,0 km/h (0 Bft) 100,00 %
19.05.2019 01:30 14,6 C 12,8 C 12,8 C 92 % 1006,3 hPa 0,0 l/m 0 min 0 min 0 W/m 0,0 km/h (0 Bft) 100,00 %
19.05.2019 01:32 14,6 C 12,8 C 12,8 C 92 % 1006,3 hPa 0,0 l/m 0 min 0 min 0 W/m 0,0 km/h (0 Bft) 97,87 %
19.05.2019 01:34 14,5 C 12,8 C 12,8 C 92 % 1006,2 hPa 0,0 l/m 0 min 0 min 0 W/m 3,2 km/h (1 Bft) 100,00 %
19.05.2019 01:36 14,5 C 12,8 C 12,2 C 92 % 1006,2 hPa 0,0 l/m 0 min 0 min 0 W/m 0,0 km/h (0 Bft) 100,00 %
19.05.2019 01:38 14,5 C 12,8 C 12,2 C 92 % 1006,2 hPa 0,0 l/m 0 min 0 min 0 W/m 0,0 km/h (0 Bft) 100,00 %
19.05.2019 01:40 14,5 C 12,8 C 12,2 C 92 % 1006,2 hPa 0,0 l/m 0 min 0 min 0 W/m 0,0 km/h (0 Bft) 97,92 %
19.05.2019 01:42 14,4 C 12,8 C 12,2 C 92 % 1006,2 hPa 0,0 l/m 0 min 0 min 0 W/m 0,0 km/h (0 Bft) 100,00 %
19.05.2019 01:44 14,4 C 12,8 C 12,2 C 92 % 1006,1 hPa 0,0 l/m 0 min 0 min 0 W/m 0,0 km/h (0 Bft) 100,00 %
19.05.2019 01:46 14,4 C 12,8 C 12,2 C 92 % 1006,1 hPa 0,0 l/m 0 min 0 min 0 W/m 0,0 km/h (0 Bft) 100,00 %
19.05.2019 01:48 14,4 C 12,8 C 12,2 C 92 % 1006,1 hPa 0,0 l/m 0 min 0 min 0 W/m 0,0 km/h (0 Bft) 100,00 %
19.05.2019 01:50 14,3 C 12,8 C 12,2 C 92 % 1006,0 hPa 0,0 l/m 0 min 0 min 0 W/m 3,2 km/h (1 Bft) 100,00 %
19.05.2019 01:52 14,3 C 12,8 C 12,2 C 92 % 1006,0 hPa 0,0 l/m 0 min 0 min 0 W/m 0,0 km/h (0 Bft) 100,00 %
19.05.2019 01:54 14,3 C 12,8 C 12,2 C 92 % 1006,0 hPa 0,0 l/m 0 min 0 min 0 W/m 0,0 km/h (0 Bft) 100,00 %
19.05.2019 01:56 14,2 C 12,8 C 12,2 C 92 % 1005,9 hPa 0,0 l/m 0 min 0 min 0 W/m 0,0 km/h (0 Bft) 100,00 %
19.05.2019 01:58 14,2 C 12,8 C 12,2 C 92 % 1005,9 hPa 0,0 l/m 0 min 0 min 0 W/m 3,2 km/h (1 Bft) 100,00 %
19.05.2019 02:00 14,2 C 12,8 C 12,2 C 92 % 1005,9 hPa 0,0 l/m 0 min 0 min 0 W/m 3,2 km/h (1 Bft) 100,00 %
19.05.2019 02:02 14,2 C 12,8 C 12,2 C 93 % 1005,8 hPa 0,0 l/m 0 min 0 min 0 W/m 0,0 km/h (0 Bft) 100,00 %
19.05.2019 02:04 14,2 C 12,8 C 12,2 C 93 % 1005,8 hPa 0,0 l/m 0 min 0 min 0 W/m 3,2 km/h (1 Bft) 100,00 %
19.05.2019 02:06 14,2 C 12,8 C 12,2 C 93 % 1005,7 hPa 0,0 l/m 0 min 0 min 0 W/m 0,0 km/h (0 Bft) 100,00 %
19.05.2019 02:08 14,2 C 12,8 C 12,2 C 93 % 1005,7 hPa 0,0 l/m 0 min 0 min 0 W/m 0,0 km/h (0 Bft) 100,00 %
19.05.2019 02:10 14,2 C 12,8 C 12,2 C 93 % 1005,7 hPa 0,0 l/m 0 min 0 min 0 W/m 3,2 km/h (1 Bft) 97,87 %
19.05.2019 02:12 14,2 C 12,8 C 12,2 C 93 % 1005,7 hPa 0,0 l/m 0 min 0 min 0 W/m 0,0 km/h (0 Bft) 100,00 %
19.05.2019 02:14 14,2 C 12,8 C 12,2 C 93 % 1005,7 hPa 0,0 l/m 0 min 0 min 0 W/m 6,4 km/h (2 Bft) 100,00 %
19.05.2019 02:16 14,2 C 12,8 C 12,2 C 93 % 1005,7 hPa 0,0 l/m 0 min 0 min 0 W/m 9,7 km/h (2 Bft) 100,00 %
19.05.2019 02:18 14,2 C 12,8 C 12,2 C 93 % 1005,7 hPa 0,0 l/m 0 min 0 min 0 W/m 0,0 km/h (0 Bft) 100,00 %
19.05.2019 02:20 14,2 C 12,8 C 12,2 C 93 % 1005,7 hPa 0,0 l/m 0 min 0 min 0 W/m 0,0 km/h (0 Bft) 100,00 %
19.05.2019 02:22 14,2 C 12,8 C 12,2 C 93 % 1005,6 hPa 0,0 l/m 0 min 0 min 0 W/m 0,0 km/h (0 Bft) 100,00 %
19.05.2019 02:24 14,2 C 12,8 C 12,2 C 93 % 1005,7 hPa 0,0 l/m 0 min 0 min 0 W/m 0,0 km/h (0 Bft) 100,00 %
19.05.2019 02:26 14,2 C 12,8 C 12,2 C 93 % 1005,7 hPa 0,0 l/m 0 min 0 min 0 W/m 0,0 km/h (0 Bft) 100,00 %
19.05.2019 02:28 14,2 C 12,8 C 12,2 C 93 % 1005,6 hPa 0,0 l/m 0 min 0 min 0 W/m 0,0 km/h (0 Bft) 97,92 %
19.05.2019 02:30 14,2 C 12,8 C 12,2 C 93 % 1005,6 hPa 0,0 l/m 0 min 0 min 0 W/m 0,0 km/h (0 Bft) 100,00 %
19.05.2019 02:32 14,2 C 12,8 C 12,2 C 93 % 1005,6 hPa 0,0 l/m 0 min 0 min 0 W/m 0,0 km/h (0 Bft) 97,87 %
19.05.2019 02:34 14,2 C 12,8 C 12,2 C 93 % 1005,6 hPa 0,0 l/m 0 min 0 min 0 W/m 6,4 km/h (2 Bft) 100,00 %
19.05.2019 02:36 14,2 C 12,8 C 12,2 C 93 % 1005,6 hPa 0,0 l/m 0 min 0 min 0 W/m 3,2 km/h (1 Bft) 100,00 %
19.05.2019 02:38 14,1 C 12,8 C 12,2 C 94 % 1005,6 hPa 0,0 l/m 0 min 0 min 0 W/m 0,0 km/h (0 Bft) 97,96 %
19.05.2019 02:40 14,2 C 12,8 C 12,2 C 94 % 1005,5 hPa 0,0 l/m 0 min 0 min 0 W/m 0,0 km/h (0 Bft) 100,00 %
19.05.2019 02:42 14,1 C 12,8 C 12,2 C 94 % 1005,5 hPa 0,0 l/m 0 min 0 min 0 W/m 0,0 km/h (0 Bft) 100,00 %
19.05.2019 02:44 14,1 C 12,8 C 12,2 C 94 % 1005,5 hPa 0,0 l/m 0 min 0 min 0 W/m 0,0 km/h (0 Bft) 100,00 %
19.05.2019 02:46 14,1 C 12,8 C 12,2 C 94 % 1005,5 hPa 0,0 l/m 0 min 0 min 0 W/m 0,0 km/h (0 Bft) 97,87 %
19.05.2019 02:48 14,1 C 12,8 C 12,2 C 94 % 1005,5 hPa 0,0 l/m 0 min 0 min 0 W/m 0,0 km/h (0 Bft) 97,62 %
19.05.2019 02:50 14,1 C 12,8 C 12,2 C 94 % 1005,5 hPa 0,0 l/m 0 min 0 min 0 W/m 0,0 km/h (0 Bft) 97,96 %
19.05.2019 02:52 14,1 C 12,8 C 12,2 C 94 % 1005,5 hPa 0,0 l/m 0 min 0 min 0 W/m 0,0 km/h (0 Bft) 97,92 %
19.05.2019 02:54 14,1 C 12,2 C 12,2 C 94 % 1005,5 hPa 0,0 l/m 0 min 0 min 0 W/m 0,0 km/h (0 Bft) 97,92 %
19.05.2019 02:56 14,0 C 12,2 C 12,2 C 94 % 1005,5 hPa 0,0 l/m 0 min 0 min 0 W/m 0,0 km/h (0 Bft) 97,87 %
19.05.2019 02:58 14,0 C 12,2 C 12,2 C 94 % 1005,5 hPa 0,0 l/m 0 min 0 min 0 W/m 0,0 km/h (0 Bft) 97,56 %
19.05.2019 03:00 14,0 C 12,2 C 12,2 C 94 % 1005,5 hPa 0,0 l/m 0 min 0 min 0 W/m 0,0 km/h (0 Bft) 97,87 %
19.05.2019 03:02 13,9 C 12,8 C 12,2 C 94 % 1005,5 hPa 0,0 l/m 0 min 0 min 0 W/m 3,2 km/h (1 Bft) 96,00 %
19.05.2019 03:04 13,9 C 12,2 C 12,2 C 94 % 1005,5 hPa 0,0 l/m 0 min 0 min 0 W/m 0,0 km/h (0 Bft) 97,83 %
19.05.2019 03:06 13,9 C 12,2 C 12,2 C 94 % 1005,5 hPa 0,0 l/m 0 min 0 min 0 W/m 0,0 km/h (0 Bft) 98,00 %
19.05.2019 03:08 13,9 C 12,2 C 12,2 C 94 % 1005,5 hPa 0,0 l/m 0 min 0 min 0 W/m 0,0 km/h (0 Bft) 97,87 %
19.05.2019 03:10 13,9 C 12,2 C 12,2 C 94 % 1005,5 hPa 0,0 l/m 0 min 0 min 0 W/m 0,0 km/h (0 Bft) 97,87 %
19.05.2019 03:12 13,9 C 12,2 C 12,2 C 94 % 1005,5 hPa 0,0 l/m 0 min 0 min 0 W/m 0,0 km/h (0 Bft) 97,56 %
19.05.2019 03:14 13,9 C 12,2 C 12,2 C 94 % 1005,5 hPa 0,0 l/m 0 min 0 min 0 W/m 0,0 km/h (0 Bft) 95,92 %
19.05.2019 03:16 13,9 C 12,2 C 12,2 C 94 % 1005,5 hPa 0,0 l/m 0 min 0 min 0 W/m 0,0 km/h (0 Bft) 91,67 %
19.05.2019 03:18 13,9 C 12,2 C 12,2 C 94 % 1005,4 hPa 0,0 l/m 0 min 0 min 0 W/m 0,0 km/h (0 Bft) 95,92 %
19.05.2019 03:20 13,8 C 12,2 C 12,2 C 94 % 1005,4 hPa 0,0 l/m 0 min 0 min 0 W/m 0,0 km/h (0 Bft) 95,74 %
19.05.2019 03:22 13,8 C 12,2 C 12,2 C 94 % 1005,4 hPa 0,0 l/m 0 min 0 min 0 W/m 0,0 km/h (0 Bft) 95,74 %
19.05.2019 03:24 13,8 C 12,2 C 12,2 C 94 % 1005,4 hPa 0,0 l/m 0 min 0 min 0 W/m 0,0 km/h (0 Bft) 97,56 %
19.05.2019 03:26 13,8 C 12,2 C 12,2 C 94 % 1005,4 hPa 0,0 l/m 0 min 0 min 0 W/m 0,0 km/h (0 Bft) 95,83 %
19.05.2019 03:28 13,8 C 12,2 C 12,2 C 94 % 1005,4 hPa 0,0 l/m 0 min 0 min 0 W/m 0,0 km/h (0 Bft) 95,92 %
19.05.2019 03:30 13,8 C 12,2 C 12,2 C 94 % 1005,4 hPa 0,0 l/m 0 min 0 min 0 W/m 0,0 km/h (0 Bft) 97,96 %
19.05.2019 03:32 13,8 C 12,2 C 12,2 C 94 % 1005,3 hPa 0,0 l/m 0 min 0 min 0 W/m 0,0 km/h (0 Bft) 95,74 %
19.05.2019 03:34 13,8 C 12,2 C 12,2 C 94 % 1005,3 hPa 0,0 l/m 0 min 0 min 0 W/m 0,0 km/h (0 Bft) 97,83 %
19.05.2019 03:36 13,8 C 12,2 C 12,2 C 94 % 1005,3 hPa 0,0 l/m 0 min 0 min 0 W/m 0,0 km/h (0 Bft) 95,35 %
19.05.2019 03:38 13,7 C 12,2 C 12,2 C 94 % 1005,4 hPa 0,0 l/m 0 min 0 min 0 W/m 0,0 km/h (0 Bft) 97,92 %
19.05.2019 03:40 13,7 C 12,2 C 12,2 C 94 % 1005,4 hPa 0,0 l/m 0 min 0 min 0 W/m 0,0 km/h (0 Bft) 97,96 %
19.05.2019 03:42 13,7 C 12,2 C 12,2 C 94 % 1005,4 hPa 0,0 l/m 0 min 0 min 0 W/m 0,0 km/h (0 Bft) 95,83 %
19.05.2019 03:44 13,7 C 12,2 C 12,2 C 94 % 1005,3 hPa 0,0 l/m 0 min 0 min 0 W/m 0,0 km/h (0 Bft) 97,87 %
19.05.2019 03:46 13,7 C 12,2 C 12,2 C 94 % 1005,4 hPa 0,0 l/m 0 min 0 min 0 W/m 0,0 km/h (0 Bft) 97,87 %
19.05.2019 03:48 13,7 C 12,2 C 11,7 C 94 % 1005,3 hPa 0,0 l/m 0 min 0 min 0 W/m 0,0 km/h (0 Bft) 97,83 %
19.05.2019 03:50 13,7 C 12,2 C 11,7 C 94 % 1005,3 hPa 0,0 l/m 0 min 0 min 0 W/m 0,0 km/h (0 Bft) 97,87 %
19.05.2019 03:52 13,7 C 12,2 C 12,2 C 94 % 1005,3 hPa 0,0 l/m 0 min 0 min 0 W/m 3,2 km/h (1 Bft) 93,62 %
19.05.2019 03:54 13,7 C 12,2 C 12,2 C 94 % 1005,3 hPa 0,0 l/m 0 min 0 min 0 W/m 3,2 km/h (1 Bft) 95,74 %
19.05.2019 03:56 13,7 C 12,2 C 12,2 C 94 % 1005,4 hPa 0,0 l/m 0 min 0 min 0 W/m 3,2 km/h (1 Bft) 95,74 %
19.05.2019 03:58 13,6 C 12,2 C 12,2 C 94 % 1005,4 hPa 0,0 l/m 0 min 0 min 0 W/m 3,2 km/h (1 Bft) 95,65 %
19.05.2019 04:00 13,6 C 12,2 C 12,2 C 94 % 1005,5 hPa 0,0 l/m 0 min 0 min 0 W/m 0,0 km/h (0 Bft) 93,62 %
19.05.2019 04:02 13,6 C 12,2 C 12,2 C 95 % 1005,5 hPa 0,0 l/m 0 min 0 min 0 W/m 0,0 km/h (0 Bft) 100,00 %
19.05.2019 04:04 13,6 C 12,2 C 12,2 C 94 % 1005,4 hPa 0,0 l/m 0 min 0 min 0 W/m 0,0 km/h (0 Bft) 97,87 %
19.05.2019 04:06 13,6 C 12,2 C 12,2 C 94 % 1005,4 hPa 0,0 l/m 0 min 0 min 0 W/m 0,0 km/h (0 Bft) 97,87 %
19.05.2019 04:08 13,6 C 12,2 C 11,7 C 94 % 1005,3 hPa 0,0 l/m 0 min 0 min 0 W/m 0,0 km/h (0 Bft) 100,00 %
19.05.2019 04:10 13,6 C 12,2 C 11,7 C 94 % 1005,4 hPa 0,0 l/m 0 min 0 min 0 W/m 0,0 km/h (0 Bft) 93,48 %
19.05.2019 04:12 13,6 C 12,2 C 11,7 C 94 % 1005,2 hPa 0,0 l/m 0 min 0 min 0 W/m 0,0 km/h (0 Bft) 97,87 %
19.05.2019 04:14 13,6 C 12,2 C 11,7 C 94 % 1005,3 hPa 0,0 l/m 0 min 0 min 0 W/m 0,0 km/h (0 Bft) 97,87 %
19.05.2019 04:16 13,6 C 12,2 C 11,7 C 94 % 1005,2 hPa 0,0 l/m 0 min 0 min 0 W/m 0,0 km/h (0 Bft) 97,87 %
19.05.2019 04:18 13,6 C 12,2 C 11,7 C 94 % 1005,2 hPa 0,0 l/m 0 min 0 min 0 W/m 0,0 km/h (0 Bft) 97,87 %
19.05.2019 04:20 13,6 C 11,7 C 11,7 C 94 % 1005,2 hPa 0,0 l/m 0 min 0 min 0 W/m 0,0 km/h (0 Bft) 95,74 %
19.05.2019 04:22 13,5 C 11,7 C 11,7 C 94 % 1005,1 hPa 0,0 l/m 0 min 0 min 0 W/m 0,0 km/h (0 Bft) 97,83 %
19.05.2019 04:24 13,5 C 11,7 C 11,7 C 94 % 1005,1 hPa 0,0 l/m 0 min 0 min 0 W/m 0,0 km/h (0 Bft) 97,87 %
19.05.2019 04:26 13,5 C 11,7 C 11,7 C 94 % 1005,1 hPa 0,0 l/m 0 min 0 min 0 W/m 0,0 km/h (0 Bft) 97,87 %
19.05.2019 04:28 13,4 C 11,7 C 11,7 C 94 % 1005,0 hPa 0,0 l/m 0 min 0 min 0 W/m 0,0 km/h (0 Bft) 97,87 %
19.05.2019 04:30 13,4 C 11,7 C 11,7 C 94 % 1005,1 hPa 0,0 l/m 0 min 0 min 0 W/m 0,0 km/h (0 Bft) 95,74 %
19.05.2019 04:32 13,4 C 11,7 C 11,7 C 94 % 1005,1 hPa 0,0 l/m 0 min 0 min 0 W/m 0,0 km/h (0 Bft) 95,74 %
19.05.2019 04:34 13,4 C 11,7 C 11,1 C 95 % 1005,2 hPa 0,0 l/m 0 min 0 min 0 W/m 0,0 km/h (0 Bft) 97,83 %
19.05.2019 04:36 13,4 C 11,7 C 11,1 C 95 % 1005,2 hPa 0,0 l/m 0 min 0 min 0 W/m 0,0 km/h (0 Bft) 97,87 %
19.05.2019 04:38 13,4 C 11,7 C 11,7 C 95 % 1005,3 hPa 0,0 l/m 0 min 0 min 0 W/m 0,0 km/h (0 Bft) 95,74 %
19.05.2019 04:40 13,3 C 12,2 C 11,7 C 95 % 1005,3 hPa 0,0 l/m 0 min 0 min 0 W/m 0,0 km/h (0 Bft) 97,87 %
19.05.2019 04:42 13,3 C 12,2 C 11,7 C 95 % 1005,3 hPa 0,0 l/m 0 min 0 min 0 W/m 0,0 km/h (0 Bft) 95,74 %
19.05.2019 04:44 13,3 C 12,2 C 11,7 C 95 % 1005,2 hPa 0,0 l/m 0 min 0 min 0 W/m 0,0 km/h (0 Bft) 97,87 %
19.05.2019 04:46 13,3 C 11,7 C 11,7 C 95 % 1005,3 hPa 0,0 l/m 0 min 0 min 0 W/m 0,0 km/h (0 Bft) 97,83 %
19.05.2019 04:48 13,3 C 11,7 C 11,7 C 95 % 1005,2 hPa 0,0 l/m 0 min 0 min 0 W/m 0,0 km/h (0 Bft) 97,87 %
19.05.2019 04:50 13,3 C 11,7 C 11,1 C 95 % 1005,2 hPa 0,0 l/m 0 min 0 min 0 W/m 0,0 km/h (0 Bft) 97,87 %
19.05.2019 04:52 13,3 C 11,7 C 11,1 C 95 % 1005,2 hPa 0,0 l/m 0 min 0 min 0 W/m 0,0 km/h (0 Bft) 95,74 %
19.05.2019 04:54 13,2 C 11,7 C 11,1 C 94 % 1005,2 hPa 0,0 l/m 0 min 0 min 0 W/m 0,0 km/h (0 Bft) 97,87 %
19.05.2019 04:56 13,2 C 11,7 C 11,1 C 94 % 1005,2 hPa 0,0 l/m 0 min 0 min 0 W/m 0,0 km/h (0 Bft) 97,83 %
19.05.2019 04:58 13,2 C 11,7 C 11,1 C 94 % 1005,2 hPa 0,0 l/m 0 min 0 min 0 W/m 0,0 km/h (0 Bft) 100,00 %
19.05.2019 05:00 13,2 C 11,7 C 11,1 C 94 % 1005,3 hPa 0,0 l/m 0 min 0 min 0 W/m 0,0 km/h (0 Bft) 100,00 %
19.05.2019 05:02 13,2 C 11,7 C 11,1 C 94 % 1005,2 hPa 0,0 l/m 0 min 0 min 0 W/m 0,0 km/h (0 Bft) 100,00 %
19.05.2019 05:04 13,1 C 11,7 C 11,1 C 94 % 1005,3 hPa 0,0 l/m 0 min 0 min 0 W/m 0,0 km/h (0 Bft) 97,87 %
19.05.2019 05:05 13,1 C 11,7 C 11,1 C 94 % 1005,2 hPa 0,0 l/m 0 min 0 min 0 W/m 0,0 km/h (0 Bft) 100,00 %
19.05.2019 05:10 13,1 C 11,7 C 11,1 C 94 % 1005,2 hPa 0,0 l/m 0 min 0 min 0 W/m 0,0 km/h (0 Bft) 100,00 %
19.05.2019 05:12 13,1 C 11,7 C 11,1 C 94 % 1005,2 hPa 0,0 l/m 0 min 0 min 0 W/m 0,0 km/h (0 Bft) 90,91 %
19.05.2019 05:14 13,1 C 11,1 C 11,1 C 95 % 1005,3 hPa 0,0 l/m 0 min 0 min 0 W/m 0,0 km/h (0 Bft) 97,44 %
19.05.2019 05:16 13,0 C 11,1 C 11,1 C 95 % 1005,2 hPa 0,0 l/m 0 min 0 min 0 W/m 0,0 km/h (0 Bft) 100,00 %
19.05.2019 05:18 13,0 C 11,1 C 11,1 C 95 % 1005,1 hPa 0,0 l/m 0 min 0 min 0 W/m 0,0 km/h (0 Bft) 98,00 %
19.05.2019 05:20 12,9 C 11,1 C 10,6 C 95 % 1005,1 hPa 0,0 l/m 0 min 0 min 0 W/m 0,0 km/h (0 Bft) 96,00 %
19.05.2019 05:22 12,9 C 11,1 C 10,6 C 95 % 1005,2 hPa 0,0 l/m 0 min 0 min 0 W/m 0,0 km/h (0 Bft) 98,00 %
19.05.2019 05:24 12,9 C 11,1 C 10,6 C 95 % 1005,1 hPa 0,0 l/m 0 min 0 min 0 W/m 0,0 km/h (0 Bft) 95,65 %
19.05.2019 05:26 12,9 C 11,1 C 10,6 C 95 % 1005,2 hPa 0,0 l/m 0 min 0 min 0 W/m 0,0 km/h (0 Bft) 97,37 %
19.05.2019 05:28 12,9 C 11,1 C 10,6 C 95 % 1005,1 hPa 0,0 l/m 0 min 0 min 0 W/m 0,0 km/h (0 Bft) 97,87 %
19.05.2019 05:30 12,8 C 11,1 C 10,6 C 94 % 1005,1 hPa 0,0 l/m 0 min 0 min 0 W/m 0,0 km/h (0 Bft) 97,87 %
19.05.2019 05:32 12,8 C 11,1 C 10,6 C 94 % 1005,1 hPa 0,0 l/m 0 min 0 min 0 W/m 0,0 km/h (0 Bft) 96,00 %
19.05.2019 05:34 12,8 C 11,7 C 10,6 C 94 % 1005,1 hPa 0,0 l/m 0 min 0 min 0 W/m 0,0 km/h (0 Bft) 97,87 %
19.05.2019 05:36 12,8 C 11,7 C 10,6 C 94 % 1005,2 hPa 0,0 l/m 0 min 0 min 0 W/m 0,0 km/h (0 Bft) 97,62 %
19.05.2019 05:38 12,7 C 11,1 C 10,6 C 94 % 1005,1 hPa 0,0 l/m 0 min 0 min 0 W/m 0,0 km/h (0 Bft) 97,96 %
19.05.2019 05:40 12,7 C 11,1 C 10,6 C 94 % 1005,1 hPa 0,0 l/m 0 min 0 min 0 W/m 0,0 km/h (0 Bft) 97,96 %
19.05.2019 05:42 12,7 C 11,1 C 10,6 C 94 % 1005,1 hPa 0,0 l/m 0 min 0 min 0 W/m 0,0 km/h (0 Bft) 95,74 %
19.05.2019 05:44 12,7 C 11,1 C 10,6 C 94 % 1005,1 hPa 0,0 l/m 0 min 0 min 0 W/m 0,0 km/h (0 Bft) 98,11 %
19.05.2019 05:46 12,7 C 11,1 C 10,6 C 94 % 1005,1 hPa 0,0 l/m 0 min 0 min 3 W/m 0,0 km/h (0 Bft) 97,87 %
19.05.2019 05:48 12,7 C 10,6 C 10,6 C 94 % 1005,1 hPa 0,0 l/m 0 min 0 min 5 W/m 0,0 km/h (0 Bft) 97,62 %
19.05.2019 05:50 12,6 C 11,1 C 10,6 C 94 % 1005,1 hPa 0,0 l/m 0 min 0 min 6 W/m 0,0 km/h (0 Bft) 97,87 %
19.05.2019 05:52 12,6 C 11,1 C 10,6 C 94 % 1005,1 hPa 0,0 l/m 0 min 0 min 7 W/m 0,0 km/h (0 Bft) 97,87 %
19.05.2019 05:54 12,6 C 11,1 C 10,6 C 94 % 1005,1 hPa 0,0 l/m 0 min 0 min 9 W/m 0,0 km/h (0 Bft) 92,86 %
19.05.2019 05:56 12,6 C 11,1 C 10,6 C 94 % 1005,1 hPa 0,0 l/m 0 min 0 min 9 W/m 0,0 km/h (0 Bft) 97,87 %
19.05.2019 05:58 12,6 C 11,1 C 10,6 C 94 % 1005,1 hPa 0,0 l/m 0 min 0 min 11 W/m 0,0 km/h (0 Bft) 98,00 %
19.05.2019 06:00 12,5 C 11,1 C 10,6 C 94 % 1005,1 hPa 0,0 l/m 0 min 0 min 11 W/m 0,0 km/h (0 Bft) 95,83 %
19.05.2019 06:02 12,5 C 11,1 C 10,6 C 94 % 1005,1 hPa 0,0 l/m 0 min 0 min 12 W/m 0,0 km/h (0 Bft) 100,00 %
19.05.2019 06:04 12,5 C 11,1 C 10,6 C 94 % 1005,2 hPa 0,0 l/m 0 min 0 min 13 W/m 0,0 km/h (0 Bft) 100,00 %
19.05.2019 06:08 12,4 C 11,1 C 10,6 C 94 % 1005,2 hPa 0,0 l/m 0 min 0 min 17 W/m 0,0 km/h (0 Bft) 98,85 %
19.05.2019 06:10 12,4 C 11,1 C 10,6 C 94 % 1005,2 hPa 0,0 l/m 0 min 0 min 19 W/m 0,0 km/h (0 Bft) 97,83 %
19.05.2019 06:12 12,4 C 11,1 C 10,6 C 94 % 1005,2 hPa 0,0 l/m 0 min 0 min 21 W/m 0,0 km/h (0 Bft) 95,92 %
19.05.2019 06:14 12,4 C 11,1 C 10,6 C 94 % 1005,2 hPa 0,0 l/m 0 min 0 min 22 W/m 0,0 km/h (0 Bft) 97,87 %
19.05.2019 06:16 12,4 C 11,1 C 10,6 C 94 % 1005,2 hPa 0,0 l/m 0 min 0 min 24 W/m 0,0 km/h (0 Bft) 97,87 %
19.05.2019 06:18 12,3 C 11,1 C 10,6 C 94 % 1005,1 hPa 0,0 l/m 0 min 0 min 26 W/m 0,0 km/h (0 Bft) 97,87 %
19.05.2019 06:20 12,3 C 11,1 C 10,6 C 94 % 1005,2 hPa 0,0 l/m 0 min 0 min 28 W/m 0,0 km/h (0 Bft) 97,87 %
19.05.2019 06:22 12,3 C 11,7 C 10,6 C 94 % 1005,2 hPa 0,0 l/m 0 min 0 min 29 W/m 0,0 km/h (0 Bft) 97,87 %
19.05.2019 06:24 12,3 C 11,7 C 10,6 C 95 % 1005,2 hPa 0,0 l/m 0 min 0 min 30 W/m 0,0 km/h (0 Bft) 97,96 %
19.05.2019 06:26 12,3 C 11,7 C 11,1 C 95 % 1005,3 hPa 0,0 l/m 0 min 0 min 31 W/m 0,0 km/h (0 Bft) 93,62 %
19.05.2019 06:28 12,3 C 11,7 C 11,1 C 95 % 1005,3 hPa 0,0 l/m 0 min 0 min 34 W/m 0,0 km/h (0 Bft) 98,00 %
19.05.2019 06:30 12,3 C 12,2 C 11,1 C 95 % 1005,4 hPa 0,0 l/m 0 min 0 min 38 W/m 3,2 km/h (1 Bft) 97,87 %
19.05.2019 06:32 12,3 C 12,2 C 11,7 C 95 % 1005,4 hPa 0,0 l/m 0 min 0 min 40 W/m 3,2 km/h (1 Bft) 96,00 %
19.05.2019 06:34 12,4 C 12,2 C 11,7 C 95 % 1005,4 hPa 0,0 l/m 0 min 0 min 44 W/m 3,2 km/h (1 Bft) 97,87 %
19.05.2019 06:36 12,4 C 12,2 C 11,7 C 95 % 1005,3 hPa 0,0 l/m 0 min 0 min 47 W/m 0,0 km/h (0 Bft) 97,87 %
19.05.2019 06:38 12,4 C 12,2 C 11,7 C 95 % 1005,4 hPa 0,0 l/m 0 min 0 min 49 W/m 0,0 km/h (0 Bft) 97,83 %
19.05.2019 06:40 12,4 C 12,2 C 11,7 C 95 % 1005,3 hPa 0,0 l/m 0 min 0 min 52 W/m 0,0 km/h (0 Bft) 97,67 %
19.05.2019 06:42 12,5 C 12,2 C 11,7 C 95 % 1005,4 hPa 0,0 l/m 0 min 0 min 54 W/m 0,0 km/h (0 Bft) 97,62 %
19.05.2019 06:44 12,5 C 12,2 C 11,7 C 95 % 1005,4 hPa 0,0 l/m 0 min 0 min 56 W/m 0,0 km/h (0 Bft) 96,00 %
19.05.2019 06:46 12,6 C 12,2 C 11,7 C 95 % 1005,4 hPa 0,0 l/m 0 min 0 min 60 W/m 0,0 km/h (0 Bft) 97,87 %
19.05.2019 06:48 12,6 C 12,2 C 11,7 C 95 % 1005,5 hPa 0,0 l/m 0 min 0 min 62 W/m 0,0 km/h (0 Bft) 97,83 %
19.05.2019 06:50 12,6 C 12,8 C 11,7 C 95 % 1005,4 hPa 0,0 l/m 0 min 0 min 64 W/m 0,0 km/h (0 Bft) 98,00 %
19.05.2019 06:52 12,7 C 12,8 C 11,7 C 95 % 1005,4 hPa 0,0 l/m 0 min 0 min 66 W/m 0,0 km/h (0 Bft) 98,00 %
19.05.2019 06:54 12,7 C 12,8 C 12,2 C 96 % 1005,4 hPa 0,0 l/m 0 min 0 min 66 W/m 0,0 km/h (0 Bft) 97,83 %
19.05.2019 06:56 12,7 C 12,8 C 12,2 C 96 % 1005,3 hPa 0,0 l/m 0 min 0 min 65 W/m 0,0 km/h (0 Bft) 100,00 %
19.05.2019 06:58 12,7 C 12,8 C 12,2 C 96 % 1005,3 hPa 0,0 l/m 0 min 0 min 65 W/m 0,0 km/h (0 Bft) 97,87 %
19.05.2019 07:00 12,8 C 12,8 C 12,2 C 96 % 1005,4 hPa 0,0 l/m 0 min 0 min 64 W/m 0,0 km/h (0 Bft) 100,00 %
19.05.2019 07:02 12,8 C 12,8 C 12,2 C 96 % 1005,5 hPa 0,0 l/m 0 min 0 min 63 W/m 0,0 km/h (0 Bft) 97,87 %
19.05.2019 07:04 12,8 C 12,8 C 12,2 C 96 % 1005,5 hPa 0,0 l/m 0 min 0 min 62 W/m 0,0 km/h (0 Bft) 100,00 %
19.05.2019 07:06 12,8 C 12,8 C 12,2 C 96 % 1005,4 hPa 0,0 l/m 0 min 0 min 62 W/m 0,0 km/h (0 Bft) 98,15 %
19.05.2019 07:08 12,9 C 12,8 C 12,2 C 96 % 1005,3 hPa 0,0 l/m 0 min 0 min 63 W/m 0,0 km/h (0 Bft) 100,00 %
19.05.2019 07:10 12,9 C 12,8 C 12,2 C 96 % 1005,3 hPa 0,0 l/m 0 min 0 min 63 W/m 0,0 km/h (0 Bft) 100,00 %
19.05.2019 07:12 12,9 C 12,8 C 12,2 C 96 % 1005,3 hPa 0,0 l/m 0 min 0 min 63 W/m 0,0 km/h (0 Bft) 100,00 %
19.05.2019 07:14 12,9 C 12,8 C 12,2 C 96 % 1005,3 hPa 0,0 l/m 0 min 0 min 66 W/m 0,0 km/h (0 Bft) 100,00 %
19.05.2019 07:16 12,9 C 12,8 C 12,2 C 96 % 1005,3 hPa 0,0 l/m 0 min 0 min 67 W/m 0,0 km/h (0 Bft) 100,00 %
19.05.2019 07:18 13,0 C 13,3 C 12,2 C 96 % 1005,3 hPa 0,0 l/m 0 min 0 min 70 W/m 0,0 km/h (0 Bft) 100,00 %
19.05.2019 07:20 13,0 C 13,3 C 12,2 C 96 % 1005,3 hPa 0,0 l/m 0 min 0 min 72 W/m 0,0 km/h (0 Bft) 100,00 %
19.05.2019 07:22 13,1 C 13,3 C 12,2 C 96 % 1005,4 hPa 0,0 l/m 0 min 0 min 73 W/m 0,0 km/h (0 Bft) 100,00 %
19.05.2019 07:24 13,1 C 13,3 C 12,2 C 96 % 1005,3 hPa 0,0 l/m 0 min 0 min 75 W/m 0,0 km/h (0 Bft) 100,00 %
19.05.2019 07:26 13,1 C 13,3 C 12,2 C 96 % 1005,3 hPa 0,0 l/m 0 min 0 min 76 W/m 0,0 km/h (0 Bft) 100,00 %
19.05.2019 07:28 13,2 C 13,3 C 12,2 C 96 % 1005,3 hPa 0,0 l/m 0 min 0 min 76 W/m 0,0 km/h (0 Bft) 97,96 %
19.05.2019 07:30 13,2 C 13,3 C 12,2 C 96 % 1005,4 hPa 0,0 l/m 0 min 0 min 76 W/m 0,0 km/h (0 Bft) 97,92 %
19.05.2019 07:32 13,2 C 13,3 C 12,2 C 96 % 1005,4 hPa 0,0 l/m 0 min 0 min 75 W/m 0,0 km/h (0 Bft) 97,92 %
19.05.2019 07:34 13,3 C 13,3 C 12,2 C 96 % 1005,4 hPa 0,0 l/m 0 min 0 min 72 W/m 3,2 km/h (1 Bft) 97,83 %
19.05.2019 07:36 13,3 C 13,3 C 12,2 C 97 % 1005,4 hPa 0,0 l/m 0 min 0 min 72 W/m 0,0 km/h (0 Bft) 97,87 %
19.05.2019 07:38 13,3 C 13,3 C 12,2 C 97 % 1005,5 hPa 0,0 l/m 0 min 0 min 70 W/m 0,0 km/h (0 Bft) 97,62 %
19.05.2019 07:40 13,3 C 13,3 C 12,2 C 97 % 1005,5 hPa 0,0 l/m 0 min 0 min 70 W/m 0,0 km/h (0 Bft) 97,96 %
19.05.2019 07:42 13,4 C 13,3 C 12,2 C 97 % 1005,4 hPa 0,0 l/m 0 min 0 min 70 W/m 3,2 km/h (1 Bft) 91,89 %
19.05.2019 07:44 13,4 C 13,3 C 12,2 C 97 % 1005,4 hPa 0,0 l/m 0 min 0 min 69 W/m 0,0 km/h (0 Bft) 97,83 %
19.05.2019 07:46 13,4 C 13,3 C 12,2 C 97 % 1005,4 hPa 0,0 l/m 0 min 0 min 69 W/m 0,0 km/h (0 Bft) 97,96 %
19.05.2019 07:48 13,4 C 13,3 C 12,8 C 97 % 1005,4 hPa 0,0 l/m 0 min 0 min 69 W/m 0,0 km/h (0 Bft) 96,36 %
19.05.2019 07:50 13,4 C 13,9 C 12,8 C 97 % 1005,4 hPa 0,0 l/m 0 min 0 min 69 W/m 0,0 km/h (0 Bft) 95,35 %
19.05.2019 07:52 13,5 C 13,9 C 12,8 C 97 % 1005,4 hPa 0,0 l/m 0 min 0 min 69 W/m 3,2 km/h (1 Bft) 95,92 %
19.05.2019 07:54 13,5 C 13,9 C 12,8 C 97 % 1005,4 hPa 0,0 l/m 0 min 0 min 69 W/m 0,0 km/h (0 Bft) 97,83 %
19.05.2019 07:56 13,6 C 13,3 C 12,8 C 97 % 1005,4 hPa 0,0 l/m 0 min 0 min 70 W/m 0,0 km/h (0 Bft) 93,18 %
19.05.2019 07:58 13,6 C 13,9 C 12,8 C 97 % 1005,4 hPa 0,0 l/m 0 min 0 min 71 W/m 0,0 km/h (0 Bft) 97,87 %
19.05.2019 08:00 13,6 C 13,9 C 12,8 C 97 % 1005,4 hPa 0,0 l/m 0 min 0 min 73 W/m 0,0 km/h (0 Bft) 95,92 %
19.05.2019 08:02 13,6 C 13,9 C 12,8 C 97 % 1005,3 hPa 0,0 l/m 0 min 0 min 76 W/m 0,0 km/h (0 Bft) 95,74 %
19.05.2019 08:04 13,7 C 13,9 C 12,8 C 97 % 1005,4 hPa 0,0 l/m 0 min 0 min 77 W/m 0,0 km/h (0 Bft) 95,74 %
19.05.2019 08:06 13,7 C 13,9 C 12,8 C 97 % 1005,4 hPa 0,0 l/m 0 min 0 min 78 W/m 0,0 km/h (0 Bft) 95,74 %
19.05.2019 08:08 13,7 C 14,4 C 12,8 C 97 % 1005,5 hPa 0,0 l/m 0 min 0 min 81 W/m 0,0 km/h (0 Bft) 93,62 %
19.05.2019 08:10 13,7 C 14,4 C 12,8 C 97 % 1005,5 hPa 0,0 l/m 0 min 0 min 83 W/m 0,0 km/h (0 Bft) 97,56 %
19.05.2019 08:12 13,7 C 15,6 C 12,8 C 97 % 1005,4 hPa 0,0 l/m 0 min 0 min 83 W/m 3,2 km/h (1 Bft) 93,62 %
19.05.2019 08:14 13,7 C 15,6 C 12,8 C 97 % 1005,5 hPa 0,0 l/m 0 min 0 min 84 W/m 6,4 km/h (2 Bft) 93,88 %
19.05.2019 08:16 13,8 C 16,1 C 12,8 C 97 % 1005,5 hPa 0,0 l/m 0 min 0 min 84 W/m 0,0 km/h (0 Bft) 95,92 %
19.05.2019 08:18 13,8 C 16,1 C 12,8 C 97 % 1005,4 hPa 0,0 l/m 0 min 0 min 84 W/m 0,0 km/h (0 Bft) 93,75 %
19.05.2019 08:20 13,8 C 16,7 C 12,8 C 97 % 1005,4 hPa 0,0 l/m 0 min 0 min 85 W/m 0,0 km/h (0 Bft) 95,74 %
19.05.2019 08:22 13,9 C 16,7 C 12,8 C 97 % 1005,4 hPa 0,0 l/m 0 min 0 min 88 W/m 3,2 km/h (1 Bft) 97,83 %
19.05.2019 08:24 14,0 C 16,7 C 12,8 C 97 % 1005,4 hPa 0,0 l/m 0 min 0 min 90 W/m 6,4 km/h (2 Bft) 97,87 %
19.05.2019 08:26 14,1 C 16,7 C 12,8 C 97 % 1005,5 hPa 0,0 l/m 0 min 0 min 91 W/m 3,2 km/h (1 Bft) 97,62 %
19.05.2019 08:28 14,2 C 17,2 C 13,3 C 97 % 1005,5 hPa 0,0 l/m 0 min 0 min 94 W/m 0,0 km/h (0 Bft) 97,87 %
19.05.2019 08:30 14,2 C 17,2 C 13,3 C 97 % 1005,4 hPa 0,0 l/m 0 min 0 min 97 W/m 0,0 km/h (0 Bft) 97,92 %
19.05.2019 08:32 14,2 C 17,2 C 13,3 C 97 % 1005,5 hPa 0,0 l/m 0 min 0 min 101 W/m 0,0 km/h (0 Bft) 96,00 %
19.05.2019 08:34 14,3 C 17,2 C 13,3 C 97 % 1005,4 hPa 0,0 l/m 0 min 0 min 110 W/m 0,0 km/h (0 Bft) 97,87 %
19.05.2019 08:36 14,4 C 17,8 C 13,9 C 98 % 1005,4 hPa 0,0 l/m 0 min 0 min 119 W/m 0,0 km/h (0 Bft) 97,87 %
19.05.2019 08:38 14,6 C 17,8 C 14,4 C 98 % 1005,4 hPa 0,0 l/m 0 min 0 min 126 W/m 0,0 km/h (0 Bft) 95,74 %
19.05.2019 08:40 14,7 C 17,8 C 15,0 C 98 % 1005,4 hPa 0,0 l/m 0 min 0 min 129 W/m 0,0 km/h (0 Bft) 95,74 %
19.05.2019 08:42 14,8 C 18,3 C 15,6 C 98 % 1005,4 hPa 0,0 l/m 0 min 0 min 150 W/m 0,0 km/h (0 Bft) 95,24 %
19.05.2019 08:44 14,9 C 18,3 C 16,1 C 98 % 1005,4 hPa 0,0 l/m 0 min 0 min 172 W/m 0,0 km/h (0 Bft) 95,74 %
19.05.2019 08:46 14,9 C 18,3 C 16,1 C 98 % 1005,4 hPa 0,0 l/m 0 min 0 min 183 W/m 0,0 km/h (0 Bft) 93,88 %
19.05.2019 08:48 15,1 C 18,3 C 16,1 C 98 % 1005,4 hPa 0,0 l/m 0 min 0 min 197 W/m 0,0 km/h (0 Bft) 93,88 %
19.05.2019 08:50 15,1 C 17,8 C 16,1 C 98 % 1005,4 hPa 0,0 l/m 0 min 0 min 213 W/m 0,0 km/h (0 Bft) 95,74 %
19.05.2019 08:52 15,2 C 18,3 C 16,1 C 98 % 1005,4 hPa 0,0 l/m 0 min 0 min 207 W/m 0,0 km/h (0 Bft) 95,74 %
19.05.2019 08:54 15,2 C 18,3 C 16,1 C 98 % 1005,4 hPa 0,0 l/m 0 min 0 min 198 W/m 0,0 km/h (0 Bft) 95,74 %
19.05.2019 08:56 15,3 C 18,9 C 16,1 C 98 % 1005,4 hPa 0,0 l/m 0 min 0 min 205 W/m 0,0 km/h (0 Bft) 95,74 %
19.05.2019 08:58 15,4 C 18,9 C 16,1 C 98 % 1005,4 hPa 0,0 l/m 0 min 0 min 222 W/m 0,0 km/h (0 Bft) 93,02 %
19.05.2019 09:00 15,4 C 19,4 C 15,6 C 98 % 1005,5 hPa 0,0 l/m 0 min 0 min 217 W/m 0,0 km/h (0 Bft) 95,74 %
19.05.2019 09:02 15,4 C 18,9 C 15,6 C 97 % 1005,4 hPa 0,0 l/m 0 min 0 min 209 W/m 0,0 km/h (0 Bft) 95,74 %
19.05.2019 09:04 15,4 C 19,4 C 16,1 C 97 % 1005,4 hPa 0,0 l/m 0 min 0 min 240 W/m 0,0 km/h (0 Bft) 93,48 %
19.05.2019 09:06 15,5 C 20,0 C 16,7 C 97 % 1005,5 hPa 0,0 l/m 2 min 0 min 293 W/m 0,0 km/h (0 Bft) 96,00 %
19.05.2019 09:08 15,5 C 20,6 C 16,7 C 97 % 1005,5 hPa 0,0 l/m 2 min 0 min 275 W/m 0,0 km/h (0 Bft) 95,74 %
19.05.2019 09:10 15,6 C 21,1 C 17,2 C 97 % 1005,5 hPa 0,0 l/m 2 min 0 min 317 W/m 0,0 km/h (0 Bft) 95,74 %
19.05.2019 09:12 15,7 C 22,2 C 17,8 C 97 % 1005,4 hPa 0,0 l/m 2 min 0 min 368 W/m 0,0 km/h (0 Bft) 95,74 %
19.05.2019 09:14 15,7 C 22,2 C 17,8 C 97 % 1005,4 hPa 0,0 l/m 2 min 0 min 366 W/m 0,0 km/h (0 Bft) 95,35 %
19.05.2019 09:16 15,8 C 21,7 C 17,2 C 97 % 1005,5 hPa 0,0 l/m 2 min 0 min 337 W/m 0,0 km/h (0 Bft) 91,67 %
19.05.2019 09:18 15,9 C 22,2 C 17,8 C 97 % 1005,4 hPa 0,0 l/m 2 min 0 min 386 W/m 0,0 km/h (0 Bft) 100,00 %
19.05.2019 09:20 16,0 C 22,8 C 18,3 C 97 % 1005,5 hPa 0,0 l/m 2 min 0 min 394 W/m 0,0 km/h (0 Bft) 97,87 %
19.05.2019 09:22 16,1 C 23,3 C 17,8 C 97 % 1005,4 hPa 0,0 l/m 2 min 0 min 417 W/m 0,0 km/h (0 Bft) 100,00 %
19.05.2019 09:24 16,2 C 22,8 C 17,8 C 97 % 1005,4 hPa 0,0 l/m 2 min 0 min 438 W/m 0,0 km/h (0 Bft) 100,00 %
19.05.2019 09:26 16,3 C 22,8 C 17,8 C 97 % 1005,5 hPa 0,0 l/m 2 min 0 min 441 W/m 0,0 km/h (0 Bft) 100,00 %
19.05.2019 09:28 16,3 C 21,1 C 16,7 C 97 % 1005,5 hPa 0,0 l/m 2 min 0 min 366 W/m 0,0 km/h (0 Bft) 100,00 %
19.05.2019 09:30 16,4 C 21,1 C 17,2 C 96 % 1005,5 hPa 0,0 l/m 2 min 0 min 307 W/m 0,0 km/h (0 Bft) 97,87 %
19.05.2019 09:32 16,4 C 20,6 C 16,7 C 96 % 1005,6 hPa 0,0 l/m 2 min 0 min 314 W/m 0,0 km/h (0 Bft) 100,00 %
19.05.2019 09:34 16,5 C 21,1 C 17,2 C 96 % 1005,5 hPa 0,0 l/m 2 min 0 min 341 W/m 0,0 km/h (0 Bft) 100,00 %
19.05.2019 09:36 16,6 C 20,6 C 17,2 C 96 % 1005,5 hPa 0,0 l/m 2 min 0 min 319 W/m 0,0 km/h (0 Bft) 100,00 %
19.05.2019 09:38 16,6 C 20,0 C 17,8 C 96 % 1005,5 hPa 0,0 l/m 2 min 0 min 297 W/m 0,0 km/h (0 Bft) 100,00 %
19.05.2019 09:40 16,6 C 20,0 C 17,2 C 95 % 1005,5 hPa 0,0 l/m 0 min 0 min 256 W/m 0,0 km/h (0 Bft) 97,83 %
19.05.2019 09:42 16,7 C 20,0 C 17,2 C 95 % 1005,5 hPa 0,0 l/m 0 min 0 min 232 W/m 0,0 km/h (0 Bft) 100,00 %
19.05.2019 09:44 16,7 C 20,0 C 16,7 C 94 % 1005,5 hPa 0,0 l/m 0 min 0 min 224 W/m 0,0 km/h (0 Bft) 100,00 %
19.05.2019 09:46 16,8 C 19,4 C 16,7 C 94 % 1005,5 hPa 0,0 l/m 0 min 0 min 211 W/m 0,0 km/h (0 Bft) 100,00 %
19.05.2019 09:48 16,8 C 19,4 C 16,7 C 94 % 1005,5 hPa 0,0 l/m 0 min 0 min 207 W/m 0,0 km/h (0 Bft) 100,00 %
19.05.2019 09:50 16,9 C 19,4 C 16,7 C 94 % 1005,6 hPa 0,0 l/m 0 min 0 min 217 W/m 0,0 km/h (0 Bft) 100,00 %
19.05.2019 09:52 16,9 C 18,9 C 16,7 C 93 % 1005,6 hPa 0,0 l/m 0 min 0 min 240 W/m 0,0 km/h (0 Bft) 100,00 %
19.05.2019 09:54 16,9 C 18,9 C 16,7 C 93 % 1005,5 hPa 0,0 l/m 0 min 0 min 247 W/m 0,0 km/h (0 Bft) 100,00 %
19.05.2019 09:56 17,0 C 19,4 C 17,2 C 93 % 1005,5 hPa 0,0 l/m 2 min 0 min 299 W/m 0,0 km/h (0 Bft) 100,00 %
19.05.2019 09:58 17,0 C 20,6 C 17,8 C 92 % 1005,5 hPa 0,0 l/m 2 min 0 min 380 W/m 0,0 km/h (0 Bft) 100,00 %
19.05.2019 10:00 17,0 C 20,6 C 18,3 C 92 % 1005,6 hPa 0,0 l/m 2 min 0 min 420 W/m 0,0 km/h (0 Bft) 100,00 %
19.05.2019 10:02 17,1 C 21,7 C 19,4 C 91 % 1005,5 hPa 0,0 l/m 2 min 0 min 465 W/m 0,0 km/h (0 Bft) 97,87 %
19.05.2019 10:04 17,2 C 22,2 C 19,4 C 91 % 1005,6 hPa 0,0 l/m 2 min 0 min 443 W/m 0,0 km/h (0 Bft) 100,00 %
19.05.2019 10:06 17,3 C 22,8 C 20,0 C 91 % 1005,6 hPa 0,0 l/m 2 min 0 min 423 W/m 0,0 km/h (0 Bft) 100,00 %
19.05.2019 10:08 17,4 C 23,3 C 20,6 C 91 % 1005,6 hPa 0,0 l/m 2 min 0 min 443 W/m 0,0 km/h (0 Bft) 100,00 %
19.05.2019 10:10 17,5 C 23,3 C 20,6 C 91 % 1005,5 hPa 0,0 l/m 2 min 0 min 433 W/m 0,0 km/h (0 Bft) 100,00 %
19.05.2019 10:12 17,7 C 23,3 C 20,6 C 91 % 1005,6 hPa 0,0 l/m 2 min 0 min 436 W/m 0,0 km/h (0 Bft) 97,96 %
19.05.2019 10:14 17,8 C 23,9 C 20,6 C 91 % 1005,6 hPa 0,0 l/m 2 min 0 min 466 W/m 0,0 km/h (0 Bft) 100,00 %
19.05.2019 10:16 17,9 C 24,4 C 21,1 C 91 % 1005,5 hPa 0,0 l/m 2 min 0 min 485 W/m 0,0 km/h (0 Bft) 97,87 %
19.05.2019 10:18 18,0 C 23,3 C 20,6 C 91 % 1005,5 hPa 0,0 l/m 2 min 0 min 481 W/m 3,2 km/h (1 Bft) 97,87 %
19.05.2019 10:20 18,0 C 23,3 C 20,6 C 90 % 1005,4 hPa 0,0 l/m 2 min 0 min 474 W/m 0,0 km/h (0 Bft) 97,56 %
19.05.2019 10:22 18,1 C 23,3 C 20,6 C 89 % 1005,5 hPa 0,0 l/m 2 min 0 min 465 W/m 0,0 km/h (0 Bft) 97,96 %
19.05.2019 10:24 18,1 C 23,3 C 20,6 C 89 % 1005,4 hPa 0,0 l/m 2 min 0 min 442 W/m 0,0 km/h (0 Bft) 97,87 %
19.05.2019 10:26 18,2 C 23,3 C 20,6 C 89 % 1005,4 hPa 0,0 l/m 2 min 0 min 406 W/m 0,0 km/h (0 Bft) 97,83 %
19.05.2019 10:28 18,2 C 22,8 C 20,6 C 88 % 1005,4 hPa 0,0 l/m 2 min 0 min 375 W/m 0,0 km/h (0 Bft) 97,87 %
19.05.2019 10:30 18,3 C 22,2 C 20,6 C 88 % 1005,4 hPa 0,0 l/m 2 min 0 min 334 W/m 0,0 km/h (0 Bft) 97,87 %
19.05.2019 10:34 18,4 C 22,2 C 20,0 C 87 % 1005,5 hPa 0,0 l/m 4 min 0 min 351 W/m 0,0 km/h (0 Bft) 100,00 %
19.05.2019 10:36 18,4 C 22,2 C 20,0 C 87 % 1005,5 hPa 0,0 l/m 2 min 0 min 371 W/m 0,0 km/h (0 Bft) 100,00 %
19.05.2019 10:38 18,5 C 22,2 C 20,0 C 87 % 1005,5 hPa 0,0 l/m 2 min 0 min 356 W/m 0,0 km/h (0 Bft) 100,00 %
19.05.2019 10:40 18,6 C 21,7 C 20,0 C 87 % 1005,5 hPa 0,0 l/m 0 min 0 min 337 W/m 0,0 km/h (0 Bft) 100,00 %
19.05.2019 10:42 18,6 C 21,7 C 20,0 C 86 % 1005,5 hPa 0,0 l/m 0 min 0 min 324 W/m 0,0 km/h (0 Bft) 97,87 %
19.05.2019 10:44 18,6 C 21,7 C 20,0 C 86 % 1005,5 hPa 0,0 l/m 0 min 0 min 321 W/m 0,0 km/h (0 Bft) 97,87 %
19.05.2019 10:46 18,7 C 21,1 C 20,0 C 86 % 1005,5 hPa 0,0 l/m 0 min 0 min 317 W/m 0,0 km/h (0 Bft) 97,87 %
19.05.2019 10:48 18,7 C 21,1 C 20,0 C 86 % 1005,5 hPa 0,0 l/m 0 min 0 min 311 W/m 0,0 km/h (0 Bft) 95,65 %
19.05.2019 10:50 18,8 C 21,1 C 20,0 C 86 % 1005,5 hPa 0,0 l/m 0 min 0 min 314 W/m 0,0 km/h (0 Bft) 97,87 %
19.05.2019 10:52 18,8 C 21,1 C 20,0 C 86 % 1005,5 hPa 0,0 l/m 0 min 0 min 320 W/m 0,0 km/h (0 Bft) 100,00 %
19.05.2019 10:54 18,8 C 21,1 C 19,4 C 85 % 1005,4 hPa 0,0 l/m 0 min 0 min 325 W/m 0,0 km/h (0 Bft) 97,87 %
19.05.2019 10:56 18,8 C 22,2 C 20,0 C 85 % 1005,4 hPa 0,0 l/m 2 min 0 min 355 W/m 0,0 km/h (0 Bft) 97,87 %
19.05.2019 10:58 18,9 C 22,2 C 20,0 C 86 % 1005,4 hPa 0,0 l/m 2 min 0 min 399 W/m 0,0 km/h (0 Bft) 93,62 %
19.05.2019 11:00 18,9 C 22,2 C 20,0 C 85 % 1005,4 hPa 0,0 l/m 2 min 0 min 367 W/m 0,0 km/h (0 Bft) 95,65 %
19.05.2019 11:02 19,0 C 22,8 C 20,6 C 85 % 1005,4 hPa 0,0 l/m 2 min 0 min 360 W/m 0,0 km/h (0 Bft) 93,62 %
19.05.2019 11:04 19,1 C 22,8 C 21,1 C 85 % 1005,4 hPa 0,0 l/m 2 min 0 min 376 W/m 0,0 km/h (0 Bft) 95,74 %
19.05.2019 11:06 19,1 C 22,8 C 21,1 C 85 % 1005,4 hPa 0,0 l/m 2 min 0 min 451 W/m 0,0 km/h (0 Bft) 96,61 %
19.05.2019 11:08 19,2 C 23,9 C 21,7 C 85 % 1005,4 hPa 0,0 l/m 2 min 0 min 543 W/m 0,0 km/h (0 Bft) 94,29 %
19.05.2019 11:10 19,2 C 23,9 C 22,2 C 85 % 1005,3 hPa 0,0 l/m 2 min 0 min 637 W/m 0,0 km/h (0 Bft) 97,87 %
19.05.2019 11:12 19,2 C 23,9 C 22,8 C 83 % 1005,3 hPa 0,0 l/m 2 min 0 min 566 W/m 0,0 km/h (0 Bft) 97,83 %
19.05.2019 11:14 19,2 C 25,0 C 23,9 C 82 % 1005,3 hPa 0,0 l/m 2 min 0 min 662 W/m 0,0 km/h (0 Bft) 97,87 %
19.05.2019 11:16 19,3 C 23,9 C 23,9 C 81 % 1005,4 hPa 0,0 l/m 2 min 0 min 654 W/m 9,7 km/h (2 Bft) 97,87 %
19.05.2019 11:18 19,3 C 25,0 C 24,4 C 80 % 1005,3 hPa 0,0 l/m 2 min 0 min 654 W/m 6,4 km/h (2 Bft) 97,87 %
19.05.2019 11:20 19,4 C 26,1 C 25,0 C 79 % 1005,3 hPa 0,0 l/m 2 min 0 min 713 W/m 6,4 km/h (2 Bft) 97,87 %
19.05.2019 11:22 19,6 C 26,1 C 25,0 C 79 % 1005,4 hPa 0,0 l/m 2 min 0 min 714 W/m 9,7 km/h (2 Bft) 95,74 %
19.05.2019 11:24 19,7 C 26,7 C 25,6 C 77 % 1005,2 hPa 0,0 l/m 2 min 0 min 774 W/m 6,4 km/h (2 Bft) 97,83 %
19.05.2019 11:26 19,9 C 27,8 C 26,7 C 78 % 1005,3 hPa 0,0 l/m 2 min 0 min 838 W/m 9,7 km/h (2 Bft) 97,87 %
19.05.2019 11:28 20,0 C 27,8 C 27,2 C 76 % 1005,3 hPa 0,0 l/m 2 min 0 min 776 W/m 6,4 km/h (2 Bft) 97,87 %
19.05.2019 11:30 20,1 C 27,2 C 27,2 C 74 % 1005,3 hPa 0,0 l/m 2 min 0 min 782 W/m 9,7 km/h (2 Bft) 97,87 %
19.05.2019 11:32 20,2 C 27,2 C 26,7 C 74 % 1005,2 hPa 0,0 l/m 2 min 0 min 749 W/m 9,7 km/h (2 Bft) 97,87 %
19.05.2019 11:34 20,3 C 24,4 C 25,0 C 71 % 1005,3 hPa 0,0 l/m 2 min 0 min 638 W/m 9,7 km/h (2 Bft) 97,87 %
19.05.2019 11:36 20,3 C 24,4 C 24,4 C 70 % 1005,2 hPa 0,0 l/m 2 min 0 min 489 W/m 6,4 km/h (2 Bft) 97,83 %
19.05.2019 11:38 20,4 C 23,9 C 23,3 C 73 % 1005,3 hPa 0,0 l/m 2 min 0 min 424 W/m 9,7 km/h (2 Bft) 97,87 %
19.05.2019 11:40 20,4 C 23,3 C 22,8 C 72 % 1005,3 hPa 0,0 l/m 2 min 0 min 397 W/m 6,4 km/h (2 Bft) 100,00 %
19.05.2019 11:42 20,6 C 23,9 C 22,8 C 73 % 1005,2 hPa 0,0 l/m 2 min 0 min 399 W/m 6,4 km/h (2 Bft) 100,00 %
19.05.2019 11:44 20,6 C 23,3 C 22,8 C 73 % 1005,2 hPa 0,0 l/m 2 min 0 min 458 W/m 6,4 km/h (2 Bft) 100,00 %
19.05.2019 11:46 20,6 C 23,9 C 23,3 C 72 % 1005,2 hPa 0,0 l/m 2 min 0 min 541 W/m 9,7 km/h (2 Bft) 100,00 %
19.05.2019 11:48 20,7 C 25,6 C 24,4 C 74 % 1005,2 hPa 0,0 l/m 2 min 0 min 635 W/m 6,4 km/h (2 Bft) 97,83 %
19.05.2019 11:50 20,7 C 25,0 C 25,0 C 73 % 1005,2 hPa 0,0 l/m 2 min 0 min 582 W/m 6,4 km/h (2 Bft) 100,00 %
19.05.2019 11:52 20,8 C 25,0 C 24,4 C 72 % 1005,2 hPa 0,0 l/m 2 min 0 min 610 W/m 9,7 km/h (2 Bft) 100,00 %
19.05.2019 11:54 20,8 C 25,0 C 24,4 C 72 % 1005,0 hPa 0,0 l/m 2 min 0 min 602 W/m 6,4 km/h (2 Bft) 97,87 %
19.05.2019 11:56 20,8 C 24,4 C 24,4 C 71 % 1005,1 hPa 0,0 l/m 2 min 0 min 629 W/m 9,7 km/h (2 Bft) 100,00 %
19.05.2019 11:58 20,9 C 24,4 C 24,4 C 71 % 1005,1 hPa 0,0 l/m 2 min 0 min 509 W/m 6,4 km/h (2 Bft) 100,00 %
19.05.2019 12:00 20,9 C 25,0 C 23,9 C 73 % 1005,2 hPa 0,0 l/m 2 min 0 min 464 W/m 6,4 km/h (2 Bft) 100,00 %
19.05.2019 12:02 21,0 C 24,4 C 23,3 C 72 % 1005,1 hPa 0,0 l/m 2 min 0 min 429 W/m 6,4 km/h (2 Bft) 100,00 %
19.05.2019 12:04 21,0 C 23,9 C 22,8 C 71 % 1005,1 hPa 0,0 l/m 2 min 0 min 400 W/m 6,4 km/h (2 Bft) 97,87 %
19.05.2019 12:08 21,1 C 23,9 C 23,3 C 72 % 1005,1 hPa 0,0 l/m 4 min 0 min 449 W/m 9,7 km/h (2 Bft) 97,87 %
19.05.2019 12:10 21,1 C 24,4 C 23,3 C 71 % 1005,0 hPa 0,0 l/m 2 min 0 min 444 W/m 3,2 km/h (1 Bft) 97,83 %
19.05.2019 12:12 21,1 C 25,0 C 23,3 C 72 % 1005,0 hPa 0,0 l/m 2 min 0 min 488 W/m 3,2 km/h (1 Bft) 97,87 %
19.05.2019 12:14 21,2 C 25,0 C 23,9 C 73 % 1004,9 hPa 0,0 l/m 2 min 0 min 464 W/m 3,2 km/h (1 Bft) 100,00 %
19.05.2019 12:16 21,2 C 25,0 C 23,9 C 74 % 1005,1 hPa 0,0 l/m 2 min 0 min 455 W/m 3,2 km/h (1 Bft) 100,00 %
19.05.2019 12:18 21,2 C 25,6 C 23,9 C 75 % 1005,1 hPa 0,0 l/m 2 min 0 min 512 W/m 3,2 km/h (1 Bft) 97,87 %
19.05.2019 12:20 21,2 C 25,6 C 24,4 C 74 % 1005,1 hPa 0,0 l/m 2 min 0 min 592 W/m 3,2 km/h (1 Bft) 97,87 %
19.05.2019 12:22 21,3 C 25,6 C 25,0 C 74 % 1005,0 hPa 0,0 l/m 2 min 0 min 691 W/m 6,4 km/h (2 Bft) 97,83 %
19.05.2019 12:24 21,3 C 26,7 C 25,6 C 73 % 1004,9 hPa 0,0 l/m 2 min 0 min 773 W/m 6,4 km/h (2 Bft) 100,00 %
19.05.2019 12:26 21,4 C 27,2 C 26,1 C 74 % 1005,0 hPa 0,0 l/m 2 min 0 min 762 W/m 6,4 km/h (2 Bft) 100,00 %
19.05.2019 12:28 21,5 C 28,3 C 26,7 C 74 % 1004,9 hPa 0,0 l/m 2 min 0 min 725 W/m 6,4 km/h (2 Bft) 100,00 %
19.05.2019 12:30 21,7 C 28,3 C 27,8 C 74 % 1004,9 hPa 0,0 l/m 2 min 0 min 739 W/m 6,4 km/h (2 Bft) 97,87 %
19.05.2019 12:32 21,8 C 28,9 C 28,3 C 74 % 1004,9 hPa 0,0 l/m 2 min 0 min 735 W/m 9,7 km/h (2 Bft) 97,87 %
19.05.2019 12:34 21,9 C 28,3 C 27,8 C 74 % 1004,9 hPa 0,0 l/m 2 min 0 min 737 W/m 3,2 km/h (1 Bft) 97,83 %
19.05.2019 12:36 22,0 C 28,9 C 27,8 C 70 % 1004,8 hPa 0,0 l/m 2 min 0 min 741 W/m 3,2 km/h (1 Bft) 93,62 %
19.05.2019 12:38 22,1 C 28,3 C 27,8 C 69 % 1004,8 hPa 0,0 l/m 2 min 0 min 771 W/m 6,4 km/h (2 Bft) 97,87 %
19.05.2019 12:40 22,2 C 29,4 C 28,9 C 69 % 1004,9 hPa 0,0 l/m 2 min 0 min 830 W/m 9,7 km/h (2 Bft) 97,87 %
19.05.2019 12:42 22,3 C 30,0 C 30,0 C 70 % 1004,8 hPa 0,0 l/m 2 min 0 min 888 W/m 3,2 km/h (1 Bft) 97,87 %
19.05.2019 12:44 22,5 C 30,6 C 30,6 C 70 % 1004,9 hPa 0,0 l/m 2 min 0 min 911 W/m 9,7 km/h (2 Bft) 97,87 %
19.05.2019 12:46 22,7 C 31,1 C 30,6 C 72 % 1004,9 hPa 0,0 l/m 2 min 0 min 904 W/m 6,4 km/h (2 Bft) 97,83 %
19.05.2019 12:48 22,9 C 30,6 C 30,0 C 70 % 1004,9 hPa 0,0 l/m 2 min 0 min 891 W/m 6,4 km/h (2 Bft) 95,74 %
19.05.2019 12:50 22,9 C 31,1 C 30,0 C 69 % 1004,8 hPa 0,0 l/m 2 min 0 min 833 W/m 6,4 km/h (2 Bft) 97,87 %
19.05.2019 12:52 23,0 C 30,0 C 28,9 C 68 % 1004,8 hPa 0,0 l/m 2 min 0 min 776 W/m 6,4 km/h (2 Bft) 97,87 %
19.05.2019 12:54 23,1 C 30,0 C 29,4 C 68 % 1004,7 hPa 0,0 l/m 2 min 0 min 755 W/m 9,7 km/h (2 Bft) 97,87 %
19.05.2019 12:56 23,2 C 29,4 C 28,9 C 68 % 1004,7 hPa 0,0 l/m 2 min 0 min 810 W/m 19,3 km/h (3 Bft) 97,87 %
19.05.2019 12:58 23,3 C 28,9 C 28,9 C 68 % 1004,7 hPa 0,0 l/m 2 min 0 min 747 W/m 9,7 km/h (2 Bft) 97,83 %
19.05.2019 13:00 23,2 C 27,2 C 27,2 C 63 % 1004,8 hPa 0,0 l/m 2 min 0 min 721 W/m 9,7 km/h (2 Bft) 97,87 %
19.05.2019 13:02 23,3 C 28,3 C 27,8 C 64 % 1004,8 hPa 0,0 l/m 2 min 0 min 778 W/m 6,4 km/h (2 Bft) 97,87 %
19.05.2019 13:04 23,3 C 28,3 C 27,8 C 64 % 1004,8 hPa 0,0 l/m 2 min 0 min 820 W/m 12,9 km/h (3 Bft) 100,00 %
19.05.2019 13:06 23,3 C 28,9 C 28,9 C 67 % 1004,7 hPa 0,0 l/m 2 min 0 min 812 W/m 6,4 km/h (2 Bft) 97,87 %
19.05.2019 13:08 23,4 C 29,4 C 28,9 C 65 % 1004,7 hPa 0,0 l/m 2 min 0 min 808 W/m 6,4 km/h (2 Bft) 95,74 %
19.05.2019 13:10 23,5 C 29,4 C 30,0 C 66 % 1004,7 hPa 0,0 l/m 2 min 0 min 786 W/m 9,7 km/h (2 Bft) 95,65 %
19.05.2019 13:12 23,6 C 28,9 C 30,0 C 67 % 1004,7 hPa 0,0 l/m 2 min 0 min 790 W/m 12,9 km/h (3 Bft) 95,74 %
19.05.2019 13:14 23,7 C 28,3 C 28,3 C 66 % 1004,7 hPa 0,0 l/m 2 min 0 min 786 W/m 9,7 km/h (2 Bft) 95,74 %
19.05.2019 13:16 23,7 C 28,9 C 29,4 C 67 % 1004,7 hPa 0,0 l/m 2 min 0 min 793 W/m 6,4 km/h (2 Bft) 95,74 %
19.05.2019 13:18 23,8 C 28,9 C 29,4 C 66 % 1004,6 hPa 0,0 l/m 2 min 0 min 795 W/m 12,9 km/h (3 Bft) 95,74 %
19.05.2019 13:20 23,8 C 28,9 C 28,9 C 65 % 1004,6 hPa 0,0 l/m 2 min 0 min 716 W/m 9,7 km/h (2 Bft) 95,74 %
19.05.2019 13:22 23,7 C 27,2 C 26,7 C 63 % 1004,6 hPa 0,0 l/m 2 min 0 min 701 W/m 22,5 km/h (4 Bft) 93,48 %
19.05.2019 13:24 23,7 C 26,1 C 25,6 C 66 % 1004,6 hPa 0,0 l/m 0 min 0 min 386 W/m 12,9 km/h (3 Bft) 93,62 %
19.05.2019 13:26 23,6 C 26,1 C 26,1 C 66 % 1004,6 hPa 0,0 l/m 0 min 0 min 373 W/m 6,4 km/h (2 Bft) 93,62 %
19.05.2019 13:28 23,6 C 26,1 C 25,6 C 67 % 1004,5 hPa 0,0 l/m 2 min 0 min 451 W/m 6,4 km/h (2 Bft) 91,49 %
19.05.2019 13:30 23,4 C 26,1 C 25,6 C 66 % 1004,5 hPa 0,0 l/m 2 min 0 min 452 W/m 6,4 km/h (2 Bft) 93,62 %
19.05.2019 13:32 23,4 C 26,7 C 26,7 C 66 % 1004,4 hPa 0,0 l/m 2 min 0 min 484 W/m 9,7 km/h (2 Bft) 93,62 %
19.05.2019 13:34 23,4 C 27,8 C 27,8 C 65 % 1004,5 hPa 0,0 l/m 2 min 0 min 740 W/m 19,3 km/h (3 Bft) 93,48 %
19.05.2019 13:36 23,4 C 27,2 C 27,2 C 66 % 1004,3 hPa 0,0 l/m 2 min 0 min 735 W/m 9,7 km/h (2 Bft) 94,92 %
19.05.2019 13:38 23,5 C 27,8 C 27,8 C 65 % 1004,4 hPa 0,0 l/m 2 min 0 min 667 W/m 9,7 km/h (2 Bft) 97,14 %
19.05.2019 13:40 23,5 C 27,2 C 27,2 C 65 % 1004,4 hPa 0,0 l/m 2 min 0 min 563 W/m 9,7 km/h (2 Bft) 93,62 %
19.05.2019 13:42 23,5 C 26,7 C 26,1 C 65 % 1004,4 hPa 0,0 l/m 0 min 0 min 371 W/m 6,4 km/h (2 Bft) 95,74 %
19.05.2019 13:44 23,5 C 27,2 C 26,7 C 66 % 1004,4 hPa 0,0 l/m 0 min 0 min 407 W/m 9,7 km/h (2 Bft) 95,65 %
19.05.2019 13:46 23,4 C 27,2 C 27,2 C 63 % 1004,4 hPa 0,0 l/m 2 min 0 min 796 W/m 9,7 km/h (2 Bft) 93,62 %
19.05.2019 13:48 23,4 C 27,8 C 27,8 C 63 % 1004,4 hPa 0,0 l/m 2 min 0 min 789 W/m 9,7 km/h (2 Bft) 95,74 %
19.05.2019 13:50 23,4 C 27,8 C 27,8 C 64 % 1004,4 hPa 0,0 l/m 2 min 0 min 686 W/m 6,4 km/h (2 Bft) 95,74 %
19.05.2019 13:52 23,5 C 27,8 C 27,2 C 65 % 1004,3 hPa 0,0 l/m 2 min 0 min 432 W/m 9,7 km/h (2 Bft) 95,74 %
19.05.2019 13:54 23,5 C 27,2 C 26,1 C 65 % 1004,3 hPa 0,0 l/m 0 min 0 min 410 W/m 9,7 km/h (2 Bft) 95,74 %
19.05.2019 13:56 23,4 C 26,1 C 25,6 C 63 % 1004,3 hPa 0,0 l/m 0 min 0 min 406 W/m 9,7 km/h (2 Bft) 95,65 %
19.05.2019 13:58 23,3 C 27,2 C 26,7 C 64 % 1004,3 hPa 0,0 l/m 2 min 0 min 514 W/m 6,4 km/h (2 Bft) 93,62 %
19.05.2019 14:00 23,4 C 28,3 C 27,8 C 66 % 1004,3 hPa 0,0 l/m 2 min 0 min 775 W/m 6,4 km/h (2 Bft) 95,74 %
19.05.2019 14:02 23,4 C 29,4 C 28,9 C 66 % 1004,3 hPa 0,0 l/m 2 min 0 min 808 W/m 3,2 km/h (1 Bft) 95,74 %
19.05.2019 14:04 23,6 C 29,4 C 29,4 C 64 % 1004,3 hPa 0,0 l/m 2 min 0 min 818 W/m 6,4 km/h (2 Bft) 97,87 %
19.05.2019 14:06 23,7 C 29,4 C 30,0 C 65 % 1004,2 hPa 0,0 l/m 2 min 0 min 747 W/m 6,4 km/h (2 Bft) 100,00 %
19.05.2019 14:08 23,7 C 28,9 C 28,9 C 64 % 1004,3 hPa 0,0 l/m 2 min 0 min 640 W/m 6,4 km/h (2 Bft) 100,00 %
19.05.2019 14:10 23,8 C 28,9 C 28,9 C 64 % 1004,3 hPa 0,0 l/m 2 min 0 min 607 W/m 6,4 km/h (2 Bft) 100,00 %
19.05.2019 14:12 23,9 C 28,9 C 28,3 C 62 % 1004,3 hPa 0,0 l/m 2 min 0 min 624 W/m 6,4 km/h (2 Bft) 95,74 %
19.05.2019 14:14 23,8 C 28,3 C 28,3 C 60 % 1004,2 hPa 0,0 l/m 2 min 0 min 663 W/m 6,4 km/h (2 Bft) 97,87 %
19.05.2019 14:16 23,9 C 28,9 C 28,3 C 63 % 1004,2 hPa 0,0 l/m 2 min 0 min 735 W/m 9,7 km/h (2 Bft) 97,87 %
19.05.2019 14:18 24,0 C 29,4 C 29,4 C 62 % 1004,2 hPa 0,0 l/m 2 min 0 min 854 W/m 9,7 km/h (2 Bft) 100,00 %
19.05.2019 14:20 24,1 C 30,0 C 30,6 C 62 % 1004,2 hPa 0,0 l/m 2 min 0 min 892 W/m 6,4 km/h (2 Bft) 95,65 %
19.05.2019 14:22 24,2 C 29,4 C 29,4 C 62 % 1004,2 hPa 0,0 l/m 2 min 0 min 872 W/m 6,4 km/h (2 Bft) 100,00 %
19.05.2019 14:24 24,3 C 28,9 C 27,8 C 62 % 1004,2 hPa 0,0 l/m 2 min 0 min 652 W/m 6,4 km/h (2 Bft) 100,00 %
19.05.2019 14:26 24,4 C 29,4 C 28,9 C 62 % 1004,3 hPa 0,0 l/m 2 min 0 min 533 W/m 6,4 km/h (2 Bft) 97,87 %
19.05.2019 14:28 24,4 C 29,4 C 29,4 C 60 % 1004,3 hPa 0,0 l/m 2 min 0 min 926 W/m 12,9 km/h (3 Bft) 100,00 %
19.05.2019 14:30 24,6 C 30,0 C 30,0 C 61 % 1004,3 hPa 0,0 l/m 2 min 0 min 856 W/m 9,7 km/h (2 Bft) 100,00 %
19.05.2019 14:32 24,5 C 28,3 C 27,8 C 56 % 1004,3 hPa 0,0 l/m 2 min 0 min 743 W/m 6,4 km/h (2 Bft) 100,00 %
19.05.2019 14:34 24,5 C 27,2 C 26,1 C 57 % 1004,3 hPa 0,0 l/m 0 min 0 min 350 W/m 6,4 km/h (2 Bft) 100,00 %
19.05.2019 14:36 24,5 C 26,1 C 25,6 C 58 % 1004,2 hPa 0,0 l/m 0 min 0 min 335 W/m 9,7 km/h (2 Bft) 100,00 %
19.05.2019 14:38 24,5 C 26,1 C 24,4 C 57 % 1004,3 hPa 0,0 l/m 0 min 0 min 340 W/m 12,9 km/h (3 Bft) 100,00 %
19.05.2019 14:40 24,5 C 25,6 C 24,4 C 56 % 1004,4 hPa 0,0 l/m 0 min 0 min 361 W/m 6,4 km/h (2 Bft) 100,00 %
19.05.2019 14:42 24,5 C 25,6 C 24,4 C 58 % 1004,3 hPa 0,0 l/m 2 min 0 min 435 W/m 6,4 km/h (2 Bft) 100,00 %
19.05.2019 14:44 24,5 C 26,7 C 25,6 C 57 % 1004,2 hPa 0,0 l/m 2 min 0 min 550 W/m 9,7 km/h (2 Bft) 100,00 %
19.05.2019 14:46 24,5 C 27,8 C 27,2 C 58 % 1004,2 hPa 0,0 l/m 2 min 0 min 852 W/m 6,4 km/h (2 Bft) 100,00 %
19.05.2019 14:48 24,6 C 28,9 C 27,8 C 58 % 1004,3 hPa 0,0 l/m 2 min 0 min 900 W/m 9,7 km/h (2 Bft) 100,00 %
19.05.2019 14:50 24,7 C 29,4 C 28,3 C 59 % 1004,2 hPa 0,0 l/m 2 min 0 min 874 W/m 6,4 km/h (2 Bft) 100,00 %
19.05.2019 14:52 24,8 C 28,9 C 28,3 C 57 % 1004,3 hPa 0,0 l/m 2 min 0 min 917 W/m 6,4 km/h (2 Bft) 97,83 %
19.05.2019 14:54 24,9 C 27,8 C 26,7 C 57 % 1004,3 hPa 0,0 l/m 0 min 0 min 354 W/m 9,7 km/h (2 Bft) 97,87 %
19.05.2019 14:56 24,9 C 26,1 C 25,0 C 55 % 1004,3 hPa 0,0 l/m 0 min 0 min 288 W/m 16,1 km/h (3 Bft) 97,87 %
19.05.2019 14:58 24,8 C 25,6 C 24,4 C 55 % 1004,3 hPa 0,0 l/m 0 min 0 min 275 W/m 12,9 km/h (3 Bft) 100,00 %
19.05.2019 15:00 24,8 C 25,6 C 23,9 C 57 % 1004,2 hPa 0,0 l/m 0 min 0 min 283 W/m 12,9 km/h (3 Bft) 100,00 %
19.05.2019 15:02 24,7 C 26,7 C 24,4 C 57 % 1004,2 hPa 0,0 l/m 2 min 0 min 437 W/m 9,7 km/h (2 Bft) 97,87 %
19.05.2019 15:04 24,7 C 28,3 C 24,4 C 59 % 1004,2 hPa 0,0 l/m 2 min 0 min 901 W/m 9,7 km/h (2 Bft) 100,00 %
19.05.2019 15:06 24,7 C 27,8 C 24,4 C 57 % 1004,2 hPa 0,0 l/m 2 min 0 min 864 W/m 9,7 km/h (2 Bft) 100,00 %
19.05.2019 15:08 24,8 C 28,3 C 24,4 C 58 % 1004,2 hPa 0,0 l/m 2 min 0 min 492 W/m 9,7 km/h (2 Bft) 100,00 %
19.05.2019 15:10 24,8 C 27,2 C 24,4 C 57 % 1004,2 hPa 0,0 l/m 2 min 0 min 544 W/m 6,4 km/h (2 Bft) 100,00 %
19.05.2019 15:12 24,7 C 26,1 C 24,4 C 57 % 1004,1 hPa 0,0 l/m 0 min 0 min 311 W/m 9,7 km/h (2 Bft) 100,00 %
19.05.2019 15:14 24,7 C 25,6 C 23,9 C 55 % 1004,1 hPa 0,0 l/m 0 min 0 min 336 W/m 12,9 km/h (3 Bft) 97,83 %
19.05.2019 15:16 24,7 C 25,6 C 23,9 C 57 % 1004,1 hPa 0,0 l/m 0 min 0 min 349 W/m 6,4 km/h (2 Bft) 100,00 %
19.05.2019 15:18 24,7 C 26,1 C 23,9 C 59 % 1004,2 hPa 0,0 l/m 0 min 0 min 364 W/m 6,4 km/h (2 Bft) 100,00 %
19.05.2019 15:20 24,6 C 26,7 C 24,4 C 58 % 1004,2 hPa 0,0 l/m 0 min 0 min 364 W/m 6,4 km/h (2 Bft) 100,00 %
19.05.2019 15:22 24,7 C 27,2 C 24,4 C 59 % 1004,1 hPa 0,0 l/m 0 min 0 min 364 W/m 6,4 km/h (2 Bft) 97,87 %
19.05.2019 15:24 24,7 C 27,8 C 24,4 C 57 % 1004,2 hPa 0,0 l/m 2 min 0 min 651 W/m 9,7 km/h (2 Bft) 100,00 %
19.05.2019 15:26 24,8 C 28,3 C 24,4 C 59 % 1004,1 hPa 0,0 l/m 2 min 0 min 876 W/m 6,4 km/h (2 Bft) 100,00 %
19.05.2019 15:28 24,8 C 27,8 C 24,4 C 58 % 1004,2 hPa 0,0 l/m 2 min 0 min 606 W/m 6,4 km/h (2 Bft) 100,00 %
19.05.2019 15:30 24,8 C 27,2 C 24,4 C 57 % 1004,1 hPa 0,0 l/m 2 min 0 min 432 W/m 6,4 km/h (2 Bft) 97,87 %
19.05.2019 15:32 24,8 C 26,1 C 24,4 C 57 % 1004,1 hPa 0,0 l/m 2 min 0 min 403 W/m 9,7 km/h (2 Bft) 100,00 %
19.05.2019 15:34 24,8 C 25,6 C 23,9 C 55 % 1004,1 hPa 0,0 l/m 0 min 0 min 300 W/m 6,4 km/h (2 Bft) 97,87 %
19.05.2019 15:36 24,7 C 25,0 C 23,9 C 55 % 1004,2 hPa 0,0 l/m 0 min 0 min 274 W/m 6,4 km/h (2 Bft) 97,87 %
19.05.2019 15:38 24,7 C 25,0 C 23,9 C 58 % 1004,2 hPa 0,0 l/m 0 min 0 min 282 W/m 9,7 km/h (2 Bft) 100,00 %
19.05.2019 15:40 24,7 C 25,0 C 23,3 C 57 % 1004,2 hPa 0,0 l/m 0 min 0 min 289 W/m 6,4 km/h (2 Bft) 100,00 %
19.05.2019 15:42 24,6 C 24,4 C 23,3 C 57 % 1004,2 hPa 0,0 l/m 0 min 0 min 270 W/m 6,4 km/h (2 Bft) 97,87 %
19.05.2019 15:44 24,6 C 24,4 C 23,3 C 57 % 1004,2 hPa 0,0 l/m 0 min 0 min 251 W/m 9,7 km/h (2 Bft) 97,87 %
19.05.2019 15:46 24,4 C 23,9 C 22,8 C 56 % 1004,2 hPa 0,0 l/m 0 min 0 min 247 W/m 9,7 km/h (2 Bft) 97,87 %
19.05.2019 15:48 24,4 C 23,9 C 22,8 C 56 % 1004,1 hPa 0,0 l/m 0 min 0 min 240 W/m 6,4 km/h (2 Bft) 97,87 %
19.05.2019 15:50 24,3 C 23,3 C 22,8 C 58 % 1004,2 hPa 0,0 l/m 0 min 0 min 224 W/m 9,7 km/h (2 Bft) 100,00 %
19.05.2019 15:52 24,2 C 23,3 C 22,2 C 58 % 1004,1 hPa 0,0 l/m 0 min 0 min 221 W/m 6,4 km/h (2 Bft) 93,62 %
19.05.2019 15:54 24,1 C 23,3 C 22,2 C 56 % 1004,2 hPa 0,0 l/m 0 min 0 min 223 W/m 6,4 km/h (2 Bft) 97,87 %
19.05.2019 15:56 23,9 C 23,3 C 22,2 C 56 % 1004,2 hPa 0,0 l/m 0 min 0 min 228 W/m 9,7 km/h (2 Bft) 97,87 %
19.05.2019 15:58 23,9 C 23,3 C 22,2 C 57 % 1004,1 hPa 0,0 l/m 0 min 0 min 227 W/m 6,4 km/h (2 Bft) 93,62 %
19.05.2019 16:00 23,8 C 23,3 C 22,2 C 57 % 1004,1 hPa 0,0 l/m 0 min 0 min 217 W/m 3,2 km/h (1 Bft) 95,74 %
19.05.2019 16:02 23,8 C 23,3 C 21,7 C 59 % 1004,1 hPa 0,0 l/m 0 min 0 min 209 W/m 3,2 km/h (1 Bft) 95,65 %
19.05.2019 16:04 23,7 C 23,3 C 21,7 C 58 % 1004,1 hPa 0,0 l/m 0 min 0 min 205 W/m 3,2 km/h (1 Bft) 93,62 %
19.05.2019 16:06 23,7 C 23,3 C 21,7 C 60 % 1004,1 hPa 0,0 l/m 0 min 0 min 196 W/m 6,4 km/h (2 Bft) 95,74 %
19.05.2019 16:08 23,6 C 23,3 C 21,7 C 57 % 1004,0 hPa 0,0 l/m 0 min 0 min 185 W/m 6,4 km/h (2 Bft) 95,24 %
19.05.2019 16:10 23,6 C 23,3 C 21,7 C 59 % 1004,0 hPa 0,0 l/m 0 min 0 min 185 W/m 3,2 km/h (1 Bft) 95,74 %
19.05.2019 16:12 23,5 C 23,3 C 21,7 C 58 % 1003,9 hPa 0,0 l/m 0 min 0 min 185 W/m 6,4 km/h (2 Bft) 95,74 %
19.05.2019 16:14 23,4 C 23,3 C 21,7 C 59 % 1004,0 hPa 0,0 l/m 0 min 0 min 181 W/m 6,4 km/h (2 Bft) 95,74 %
19.05.2019 16:16 23,4 C 23,3 C 21,7 C 58 % 1004,0 hPa 0,0 l/m 0 min 0 min 171 W/m 9,7 km/h (2 Bft) 95,65 %
19.05.2019 16:18 23,4 C 23,3 C 21,7 C 59 % 1004,1 hPa 0,0 l/m 0 min 0 min 163 W/m 6,4 km/h (2 Bft) 93,62 %
19.05.2019 16:20 23,3 C 22,8 C 21,1 C 59 % 1004,1 hPa 0,0 l/m 0 min 0 min 157 W/m 6,4 km/h (2 Bft) 95,74 %
19.05.2019 16:22 23,3 C 22,8 C 21,1 C 60 % 1004,1 hPa 0,0 l/m 0 min 0 min 154 W/m 6,4 km/h (2 Bft) 95,74 %
19.05.2019 16:24 23,3 C 22,8 C 21,1 C 60 % 1004,1 hPa 0,0 l/m 0 min 0 min 153 W/m 6,4 km/h (2 Bft) 93,62 %
19.05.2019 16:26 23,2 C 22,8 C 21,1 C 59 % 1004,0 hPa 0,0 l/m 0 min 0 min 146 W/m 6,4 km/h (2 Bft) 91,49 %
19.05.2019 16:28 23,2 C 22,8 C 21,1 C 59 % 1004,0 hPa 0,0 l/m 0 min 0 min 141 W/m 6,4 km/h (2 Bft) 93,48 %
19.05.2019 16:30 23,2 C 22,2 C 21,1 C 59 % 1004,0 hPa 0,0 l/m 0 min 0 min 142 W/m 6,4 km/h (2 Bft) 93,62 %
19.05.2019 16:32 23,1 C 22,2 C 21,1 C 59 % 1004,0 hPa 0,0 l/m 0 min 0 min 140 W/m 6,4 km/h (2 Bft) 93,62 %
19.05.2019 16:34 23,1 C 22,2 C 20,6 C 58 % 1004,1 hPa 0,0 l/m 0 min 0 min 134 W/m 3,2 km/h (1 Bft) 91,49 %
19.05.2019 16:36 23,0 C 22,2 C 20,6 C 57 % 1004,1 hPa 0,0 l/m 0 min 0 min 125 W/m 25,7 km/h (4 Bft) 93,62 %
19.05.2019 16:38 22,9 C 21,1 C 20,6 C 57 % 1004,2 hPa 0,0 l/m 0 min 0 min 116 W/m 22,5 km/h (4 Bft) 93,62 %
19.05.2019 16:40 22,7 C 20,6 C 20,0 C 58 % 1004,3 hPa 0,0 l/m 0 min 0 min 107 W/m 22,5 km/h (4 Bft) 95,65 %
19.05.2019 16:42 22,5 C 20,0 C 19,4 C 58 % 1004,4 hPa 0,0 l/m 0 min 0 min 102 W/m 32,2 km/h (5 Bft) 95,74 %
19.05.2019 16:44 22,3 C 19,4 C 19,4 C 59 % 1004,5 hPa 0,0 l/m 0 min 0 min 106 W/m 19,3 km/h (3 Bft) 93,62 %
19.05.2019 16:46 22,1 C 19,4 C 19,4 C 59 % 1004,5 hPa 0,0 l/m 0 min 0 min 117 W/m 32,2 km/h (5 Bft) 95,74 %
19.05.2019 16:48 21,8 C 18,9 C 18,9 C 59 % 1004,6 hPa 0,0 l/m 0 min 0 min 122 W/m 25,7 km/h (4 Bft) 95,74 %
19.05.2019 16:50 21,5 C 18,9 C 18,9 C 60 % 1004,6 hPa 0,0 l/m 0 min 0 min 123 W/m 35,4 km/h (5 Bft) 95,74 %
19.05.2019 16:52 21,1 C 18,9 C 18,3 C 60 % 1004,6 hPa 0,0 l/m 0 min 0 min 120 W/m 32,2 km/h (5 Bft) 95,65 %
19.05.2019 16:54 20,8 C 18,3 C 18,3 C 61 % 1004,6 hPa 0,0 l/m 0 min 0 min 107 W/m 25,7 km/h (4 Bft) 95,74 %
19.05.2019 16:56 20,6 C 18,3 C 18,3 C 61 % 1004,6 hPa 0,0 l/m 0 min 0 min 92 W/m 25,7 km/h (4 Bft) 100,00 %
19.05.2019 16:58 20,3 C 18,3 C 17,8 C 61 % 1004,6 hPa 0,0 l/m 0 min 0 min 81 W/m 35,4 km/h (5 Bft) 95,74 %
19.05.2019 17:00 20,0 C 17,8 C 17,8 C 61 % 1004,6 hPa 0,0 l/m 0 min 0 min 72 W/m 35,4 km/h (5 Bft) 97,87 %
19.05.2019 17:02 19,8 C 17,8 C 17,8 C 62 % 1004,6 hPa 0,0 l/m 0 min 0 min 67 W/m 25,7 km/h (4 Bft) 95,83 %
19.05.2019 17:04 19,7 C 17,8 C 17,8 C 62 % 1004,6 hPa 0,0 l/m 0 min 0 min 65 W/m 22,5 km/h (4 Bft) 97,83 %
19.05.2019 17:06 19,5 C 18,3 C 17,8 C 63 % 1004,6 hPa 0,0 l/m 0 min 0 min 65 W/m 16,1 km/h (3 Bft) 95,74 %
19.05.2019 17:08 19,4 C 18,3 C 17,8 C 63 % 1004,6 hPa 0,0 l/m 0 min 0 min 65 W/m 12,9 km/h (3 Bft) 97,87 %
19.05.2019 17:10 19,3 C 18,3 C 17,8 C 64 % 1004,6 hPa 0,0 l/m 0 min 0 min 64 W/m 12,9 km/h (3 Bft) 95,74 %
19.05.2019 17:12 19,2 C 17,8 C 17,8 C 64 % 1004,6 hPa 0,0 l/m 0 min 0 min 62 W/m 16,1 km/h (3 Bft) 97,87 %
19.05.2019 17:14 19,2 C 17,8 C 17,2 C 64 % 1004,7 hPa 0,0 l/m 0 min 0 min 55 W/m 12,9 km/h (3 Bft) 97,87 %
19.05.2019 17:16 19,1 C 17,8 C 17,2 C 64 % 1004,8 hPa 0,0 l/m 0 min 0 min 52 W/m 16,1 km/h (3 Bft) 95,65 %
19.05.2019 17:18 19,0 C 17,8 C 17,2 C 65 % 1004,8 hPa 0,0 l/m 0 min 0 min 52 W/m 16,1 km/h (3 Bft) 97,87 %
19.05.2019 17:20 18,9 C 17,8 C 17,2 C 65 % 1004,7 hPa 0,0 l/m 0 min 0 min 54 W/m 12,9 km/h (3 Bft) 100,00 %
19.05.2019 17:22 18,9 C 17,8 C 17,2 C 65 % 1004,8 hPa 0,0 l/m 0 min 0 min 57 W/m 9,7 km/h (2 Bft) 100,00 %
19.05.2019 17:24 18,8 C 17,8 C 17,8 C 66 % 1004,8 hPa 0,0 l/m 0 min 0 min 60 W/m 12,9 km/h (3 Bft) 100,00 %
19.05.2019 17:26 18,8 C 18,3 C 17,8 C 66 % 1004,8 hPa 0,0 l/m 0 min 0 min 63 W/m 9,7 km/h (2 Bft) 100,00 %
19.05.2019 17:28 18,8 C 17,8 C 17,8 C 66 % 1004,8 hPa 0,0 l/m 0 min 0 min 66 W/m 16,1 km/h (3 Bft) 100,00 %
19.05.2019 17:30 18,8 C 17,8 C 17,8 C 66 % 1004,8 hPa 0,0 l/m 0 min 0 min 69 W/m 16,1 km/h (3 Bft) 100,00 %
19.05.2019 17:32 18,7 C 17,8 C 17,8 C 66 % 1004,8 hPa 0,0 l/m 0 min 0 min 70 W/m 12,9 km/h (3 Bft) 100,00 %
19.05.2019 17:34 18,7 C 17,8 C 17,8 C 66 % 1004,7 hPa 0,0 l/m 0 min 0 min 74 W/m 19,3 km/h (3 Bft) 100,00 %
19.05.2019 17:36 18,7 C 17,8 C 17,8 C 66 % 1004,7 hPa 0,0 l/m 0 min 0 min 76 W/m 12,9 km/h (3 Bft) 100,00 %
19.05.2019 17:38 18,7 C 17,8 C 17,2 C 66 % 1004,7 hPa 0,0 l/m 0 min 0 min 80 W/m 16,1 km/h (3 Bft) 100,00 %
19.05.2019 17:40 18,6 C 17,8 C 17,2 C 66 % 1004,7 hPa 0,0 l/m 0 min 0 min 84 W/m 22,5 km/h (4 Bft) 97,87 %
19.05.2019 17:42 18,6 C 17,8 C 17,8 C 67 % 1004,8 hPa 0,0 l/m 0 min 0 min 88 W/m 9,7 km/h (2 Bft) 100,00 %
19.05.2019 17:44 18,6 C 17,8 C 17,8 C 67 % 1004,8 hPa 0,0 l/m 0 min 0 min 92 W/m 9,7 km/h (2 Bft) 100,00 %
19.05.2019 17:46 18,6 C 17,8 C 17,8 C 67 % 1004,8 hPa 0,0 l/m 0 min 0 min 98 W/m 16,1 km/h (3 Bft) 100,00 %
19.05.2019 17:48 18,5 C 17,8 C 17,8 C 67 % 1004,8 hPa 0,0 l/m 0 min 0 min 102 W/m 22,5 km/h (4 Bft) 100,00 %
19.05.2019 17:50 18,5 C 18,3 C 17,8 C 68 % 1004,7 hPa 0,0 l/m 0 min 0 min 105 W/m 9,7 km/h (2 Bft) 100,00 %
19.05.2019 17:52 18,5 C 18,3 C 17,8 C 68 % 1004,6 hPa 0,0 l/m 0 min 0 min 107 W/m 16,1 km/h (3 Bft) 100,00 %
19.05.2019 17:54 18,5 C 17,8 C 17,8 C 68 % 1004,6 hPa 0,0 l/m 0 min 0 min 107 W/m 19,3 km/h (3 Bft) 100,00 %
19.05.2019 17:56 18,5 C 17,8 C 17,8 C 68 % 1004,6 hPa 0,0 l/m 0 min 0 min 106 W/m 19,3 km/h (3 Bft) 100,00 %
19.05.2019 17:58 18,4 C 17,8 C 17,8 C 68 % 1004,6 hPa 0,0 l/m 0 min 0 min 105 W/m 16,1 km/h (3 Bft) 97,87 %
19.05.2019 18:00 18,4 C 17,8 C 17,2 C 68 % 1004,6 hPa 0,0 l/m 0 min 0 min 105 W/m 19,3 km/h (3 Bft) 100,00 %
19.05.2019 18:02 18,4 C 17,8 C 17,2 C 69 % 1004,5 hPa 0,0 l/m 0 min 0 min 104 W/m 9,7 km/h (2 Bft) 100,00 %
19.05.2019 18:04 18,4 C 17,2 C 17,2 C 70 % 1004,5 hPa 0,0 l/m 0 min 0 min 100 W/m 12,9 km/h (3 Bft) 100,00 %
19.05.2019 18:08 18,3 C 17,2 C 16,7 C 70 % 1004,4 hPa 0,0 l/m 0 min 0 min 96 W/m 22,5 km/h (4 Bft) 98,97 %
19.05.2019 18:10 18,3 C 17,2 C 16,7 C 71 % 1004,4 hPa 0,0 l/m 0 min 0 min 90 W/m 16,1 km/h (3 Bft) 100,00 %
19.05.2019 18:12 18,2 C 17,2 C 16,7 C 71 % 1004,4 hPa 0,0 l/m 0 min 0 min 85 W/m 12,9 km/h (3 Bft) 100,00 %
19.05.2019 18:14 18,2 C 17,2 C 16,7 C 71 % 1004,4 hPa 0,0 l/m 0 min 0 min 82 W/m 16,1 km/h (3 Bft) 100,00 %
19.05.2019 18:16 18,2 C 16,7 C 16,7 C 72 % 1004,4 hPa 0,0 l/m 0 min 0 min 78 W/m 19,3 km/h (3 Bft) 97,87 %
19.05.2019 18:18 18,1 C 16,7 C 16,7 C 72 % 1004,4 hPa 0,0 l/m 0 min 0 min 74 W/m 16,1 km/h (3 Bft) 100,00 %
19.05.2019 18:20 18,1 C 16,7 C 16,7 C 72 % 1004,4 hPa 0,0 l/m 0 min 0 min 71 W/m 6,4 km/h (2 Bft) 100,00 %
19.05.2019 18:22 18,0 C 16,7 C 16,7 C 72 % 1004,5 hPa 0,0 l/m 0 min 0 min 67 W/m 12,9 km/h (3 Bft) 97,83 %
19.05.2019 18:24 17,9 C 16,7 C 16,1 C 72 % 1004,5 hPa 0,0 l/m 0 min 0 min 64 W/m 16,1 km/h (3 Bft) 100,00 %
19.05.2019 18:26 17,9 C 16,7 C 16,7 C 72 % 1004,4 hPa 0,0 l/m 0 min 0 min 62 W/m 6,4 km/h (2 Bft) 97,87 %
19.05.2019 18:28 17,8 C 16,7 C 16,7 C 72 % 1004,5 hPa 0,0 l/m 0 min 0 min 62 W/m 9,7 km/h (2 Bft) 100,00 %
19.05.2019 18:30 17,8 C 16,7 C 16,7 C 72 % 1004,5 hPa 0,0 l/m 0 min 0 min 60 W/m 6,4 km/h (2 Bft) 100,00 %
19.05.2019 18:32 17,8 C 16,7 C 16,7 C 73 % 1004,5 hPa 0,0 l/m 0 min 0 min 60 W/m 6,4 km/h (2 Bft) 100,00 %
19.05.2019 18:34 17,8 C 16,7 C 16,7 C 73 % 1004,4 hPa 0,0 l/m 0 min 0 min 62 W/m 9,7 km/h (2 Bft) 100,00 %
19.05.2019 18:36 17,7 C 16,7 C 16,7 C 73 % 1004,4 hPa 0,0 l/m 0 min 0 min 62 W/m 9,7 km/h (2 Bft) 100,00 %
19.05.2019 18:38 17,7 C 16,7 C 16,7 C 73 % 1004,4 hPa 0,0 l/m 0 min 0 min 63 W/m 9,7 km/h (2 Bft) 97,87 %
19.05.2019 18:40 17,7 C 16,7 C 16,7 C 73 % 1004,3 hPa 0,0 l/m 0 min 0 min 66 W/m 6,4 km/h (2 Bft) 97,87 %
19.05.2019 18:42 17,7 C 16,7 C 16,7 C 73 % 1004,3 hPa 0,0 l/m 0 min 0 min 68 W/m 12,9 km/h (3 Bft) 97,87 %
19.05.2019 18:44 17,7 C 16,7 C 16,7 C 73 % 1004,3 hPa 0,0 l/m 0 min 0 min 70 W/m 6,4 km/h (2 Bft) 97,87 %
19.05.2019 18:46 17,6 C 16,7 C 16,7 C 74 % 1004,3 hPa 0,0 l/m 0 min 0 min 71 W/m 9,7 km/h (2 Bft) 97,83 %
19.05.2019 18:48 17,6 C 16,7 C 16,7 C 75 % 1004,3 hPa 0,0 l/m 0 min 0 min 73 W/m 6,4 km/h (2 Bft) 93,62 %
19.05.2019 18:50 17,6 C 16,7 C 16,7 C 75 % 1004,3 hPa 0,0 l/m 0 min 0 min 75 W/m 6,4 km/h (2 Bft) 97,87 %
19.05.2019 18:52 17,6 C 16,7 C 16,1 C 76 % 1004,3 hPa 0,0 l/m 0 min 0 min 76 W/m 6,4 km/h (2 Bft) 95,74 %
19.05.2019 18:54 17,6 C 16,7 C 16,1 C 76 % 1004,3 hPa 0,0 l/m 0 min 0 min 76 W/m 3,2 km/h (1 Bft) 97,87 %
19.05.2019 18:56 17,6 C 16,7 C 16,1 C 76 % 1004,3 hPa 0,0 l/m 0 min 0 min 76 W/m 6,4 km/h (2 Bft) 97,87 %
19.05.2019 18:58 17,6 C 16,7 C 16,1 C 77 % 1004,4 hPa 0,0 l/m 0 min 0 min 74 W/m 3,2 km/h (1 Bft) 95,65 %
19.05.2019 19:00 17,6 C 16,7 C 16,1 C 77 % 1004,4 hPa 0,0 l/m 0 min 0 min 71 W/m 3,2 km/h (1 Bft) 95,74 %
19.05.2019 19:02 17,6 C 16,7 C 16,1 C 77 % 1004,4 hPa 0,0 l/m 0 min 0 min 70 W/m 6,4 km/h (2 Bft) 95,74 %
19.05.2019 19:04 17,5 C 16,7 C 16,7 C 77 % 1004,4 hPa 0,0 l/m 0 min 0 min 72 W/m 9,7 km/h (2 Bft) 95,74 %
19.05.2019 19:06 17,5 C 16,7 C 16,7 C 77 % 1004,4 hPa 0,0 l/m 0 min 0 min 75 W/m 3,2 km/h (1 Bft) 95,74 %
19.05.2019 19:08 17,5 C 16,7 C 16,7 C 78 % 1004,4 hPa 0,0 l/m 0 min 0 min 77 W/m 9,7 km/h (2 Bft) 95,65 %
19.05.2019 19:10 17,4 C 16,1 C 16,1 C 79 % 1004,4 hPa 0,0 l/m 0 min 0 min 77 W/m 16,1 km/h (3 Bft) 93,62 %
19.05.2019 19:12 17,4 C 16,1 C 16,1 C 79 % 1004,3 hPa 0,0 l/m 0 min 0 min 77 W/m 6,4 km/h (2 Bft) 95,74 %
19.05.2019 19:14 17,4 C 16,1 C 16,1 C 79 % 1004,3 hPa 0,0 l/m 0 min 0 min 77 W/m 6,4 km/h (2 Bft) 95,74 %
19.05.2019 19:16 17,3 C 16,1 C 16,1 C 79 % 1004,4 hPa 0,0 l/m 0 min 0 min 77 W/m 19,3 km/h (3 Bft) 93,62 %
19.05.2019 19:18 17,3 C 16,1 C 16,1 C 80 % 1004,3 hPa 0,0 l/m 0 min 0 min 77 W/m 6,4 km/h (2 Bft) 95,74 %
19.05.2019 19:20 17,3 C 16,1 C 16,1 C 80 % 1004,3 hPa 0,0 l/m 0 min 0 min 77 W/m 6,4 km/h (2 Bft) 93,48 %
19.05.2019 19:22 17,2 C 16,1 C 16,1 C 80 % 1004,3 hPa 0,0 l/m 0 min 0 min 77 W/m 3,2 km/h (1 Bft) 95,74 %
19.05.2019 19:24 17,2 C 16,1 C 16,1 C 81 % 1004,3 hPa 0,0 l/m 0 min 0 min 76 W/m 0,0 km/h (0 Bft) 95,74 %
19.05.2019 19:26 17,2 C 16,1 C 16,1 C 81 % 1004,3 hPa 0,0 l/m 0 min 0 min 73 W/m 6,4 km/h (2 Bft) 95,74 %
19.05.2019 19:28 17,1 C 16,1 C 16,1 C 81 % 1004,3 hPa 0,0 l/m 0 min 0 min 72 W/m 0,0 km/h (0 Bft) 97,87 %
19.05.2019 19:30 17,1 C 16,1 C 16,1 C 81 % 1004,4 hPa 0,0 l/m 0 min 0 min 69 W/m 0,0 km/h (0 Bft) 97,87 %
19.05.2019 19:32 17,1 C 16,1 C 16,1 C 82 % 1004,3 hPa 0,0 l/m 0 min 0 min 66 W/m 0,0 km/h (0 Bft) 97,83 %
19.05.2019 19:34 17,1 C 16,1 C 15,6 C 82 % 1004,4 hPa 0,0 l/m 0 min 0 min 60 W/m 0,0 km/h (0 Bft) 95,74 %
19.05.2019 19:36 17,1 C 16,1 C 15,6 C 82 % 1004,4 hPa 0,0 l/m 0 min 0 min 56 W/m 0,0 km/h (0 Bft) 97,87 %
19.05.2019 19:38 17,0 C 16,1 C 15,6 C 82 % 1004,4 hPa 0,0 l/m 0 min 0 min 53 W/m 0,0 km/h (0 Bft) 97,87 %
19.05.2019 19:40 17,0 C 15,6 C 15,6 C 82 % 1004,5 hPa 0,0 l/m 0 min 0 min 50 W/m 0,0 km/h (0 Bft) 95,74 %
19.05.2019 19:42 16,9 C 15,6 C 15,6 C 82 % 1004,5 hPa 0,0 l/m 0 min 0 min 49 W/m 0,0 km/h (0 Bft) 97,87 %
19.05.2019 19:44 16,9 C 15,6 C 15,6 C 83 % 1004,5 hPa 0,0 l/m 0 min 0 min 47 W/m 12,9 km/h (3 Bft) 95,65 %
19.05.2019 19:46 16,9 C 15,6 C 15,6 C 83 % 1004,6 hPa 0,0 l/m 0 min 0 min 46 W/m 3,2 km/h (1 Bft) 97,87 %
19.05.2019 19:48 16,9 C 15,6 C 15,6 C 83 % 1004,6 hPa 0,0 l/m 0 min 0 min 44 W/m 6,4 km/h (2 Bft) 100,00 %
19.05.2019 19:50 16,8 C 15,6 C 15,6 C 83 % 1004,6 hPa 0,0 l/m 0 min 0 min 41 W/m 3,2 km/h (1 Bft) 100,00 %
19.05.2019 19:52 16,8 C 15,6 C 15,6 C 83 % 1004,6 hPa 0,0 l/m 0 min 0 min 40 W/m 3,2 km/h (1 Bft) 100,00 %
19.05.2019 19:54 16,8 C 15,6 C 15,6 C 83 % 1004,6 hPa 0,0 l/m 0 min 0 min 37 W/m 3,2 km/h (1 Bft) 100,00 %
19.05.2019 19:56 16,8 C 15,6 C 15,6 C 83 % 1004,7 hPa 0,0 l/m 0 min 0 min 34 W/m 6,4 km/h (2 Bft) 95,65 %
19.05.2019 19:58 16,7 C 15,6 C 15,6 C 83 % 1004,8 hPa 0,0 l/m 0 min 0 min 32 W/m 16,1 km/h (3 Bft) 97,87 %
19.05.2019 20:00 16,7 C 15,6 C 15,6 C 83 % 1004,9 hPa 0,0 l/m 0 min 0 min 31 W/m 9,7 km/h (2 Bft) 97,87 %
19.05.2019 20:02 16,7 C 15,6 C 15,6 C 83 % 1004,9 hPa 0,0 l/m 0 min 0 min 30 W/m 6,4 km/h (2 Bft) 95,74 %
19.05.2019 20:04 16,6 C 15,6 C 15,6 C 83 % 1004,8 hPa 0,0 l/m 0 min 0 min 30 W/m 6,4 km/h (2 Bft) 97,87 %
19.05.2019 20:06 16,6 C 15,6 C 15,6 C 83 % 1004,8 hPa 0,0 l/m 0 min 0 min 30 W/m 9,7 km/h (2 Bft) 97,87 %
19.05.2019 20:08 16,6 C 15,6 C 15,6 C 83 % 1004,7 hPa 0,0 l/m 0 min 0 min 28 W/m 6,4 km/h (2 Bft) 97,83 %
19.05.2019 20:10 16,5 C 15,6 C 15,0 C 83 % 1004,9 hPa 0,0 l/m 0 min 0 min 28 W/m 0,0 km/h (0 Bft) 97,87 %
19.05.2019 20:12 16,4 C 15,6 C 15,0 C 83 % 1004,9 hPa 0,0 l/m 0 min 0 min 27 W/m 9,7 km/h (2 Bft) 95,74 %
19.05.2019 20:14 16,4 C 15,6 C 15,0 C 83 % 1005,0 hPa 0,0 l/m 0 min 0 min 25 W/m 6,4 km/h (2 Bft) 97,87 %
19.05.2019 20:16 16,4 C 15,6 C 15,0 C 83 % 1004,9 hPa 0,0 l/m 0 min 0 min 25 W/m 6,4 km/h (2 Bft) 97,87 %
19.05.2019 20:18 16,4 C 15,0 C 15,0 C 83 % 1004,9 hPa 0,0 l/m 0 min 0 min 23 W/m 9,7 km/h (2 Bft) 97,87 %
19.05.2019 20:20 16,3 C 15,0 C 15,0 C 83 % 1004,8 hPa 0,0 l/m 0 min 0 min 21 W/m 16,1 km/h (3 Bft) 97,83 %
19.05.2019 20:22 16,3 C 15,0 C 15,0 C 83 % 1004,8 hPa 0,0 l/m 0 min 0 min 20 W/m 16,1 km/h (3 Bft) 95,74 %
19.05.2019 20:24 16,2 C 15,0 C 15,0 C 83 % 1004,8 hPa 0,0 l/m 0 min 0 min 19 W/m 9,7 km/h (2 Bft) 97,87 %
19.05.2019 20:26 16,2 C 15,0 C 15,0 C 83 % 1004,7 hPa 0,0 l/m 0 min 0 min 18 W/m 9,7 km/h (2 Bft) 97,87 %
19.05.2019 20:28 16,2 C 15,0 C 15,0 C 83 % 1004,7 hPa 0,0 l/m 0 min 0 min 16 W/m 9,7 km/h (2 Bft) 95,74 %
19.05.2019 20:30 16,1 C 15,0 C 15,0 C 83 % 1004,7 hPa 0,0 l/m 0 min 0 min 15 W/m 9,7 km/h (2 Bft) 97,87 %
19.05.2019 20:32 16,1 C 15,0 C 15,0 C 83 % 1004,7 hPa 0,0 l/m 0 min 0 min 14 W/m 9,7 km/h (2 Bft) 97,83 %
19.05.2019 20:34 16,1 C 15,0 C 15,0 C 83 % 1004,6 hPa 0,0 l/m 0 min 0 min 12 W/m 6,4 km/h (2 Bft) 97,87 %
19.05.2019 20:36 16,1 C 15,0 C 15,0 C 83 % 1004,6 hPa 0,0 l/m 0 min 0 min 12 W/m 16,1 km/h (3 Bft) 97,87 %
19.05.2019 20:38 16,0 C 15,0 C 15,0 C 83 % 1004,6 hPa 0,0 l/m 0 min 0 min 12 W/m 16,1 km/h (3 Bft) 97,87 %
19.05.2019 20:40 15,9 C 15,0 C 15,0 C 83 % 1004,7 hPa 0,0 l/m 0 min 0 min 11 W/m 12,9 km/h (3 Bft) 97,87 %
19.05.2019 20:42 15,9 C 15,0 C 15,0 C 84 % 1004,7 hPa 0,0 l/m 0 min 0 min 10 W/m 9,7 km/h (2 Bft) 97,83 %
19.05.2019 20:44 15,9 C 14,4 C 15,0 C 84 % 1004,7 hPa 0,0 l/m 0 min 0 min 8 W/m 9,7 km/h (2 Bft) 97,87 %
19.05.2019 20:46 15,9 C 15,0 C 15,0 C 84 % 1004,7 hPa 0,0 l/m 0 min 0 min 7 W/m 9,7 km/h (2 Bft) 97,87 %
19.05.2019 20:48 15,9 C 15,0 C 15,0 C 84 % 1004,7 hPa 0,0 l/m 0 min 0 min 7 W/m 9,7 km/h (2 Bft) 97,87 %
19.05.2019 20:50 15,9 C 15,0 C 14,4 C 84 % 1004,7 hPa 0,0 l/m 0 min 0 min 6 W/m 12,9 km/h (3 Bft) 97,87 %
19.05.2019 20:52 15,8 C 15,0 C 15,0 C 85 % 1004,7 hPa 0,0 l/m 0 min 0 min 5 W/m 19,3 km/h (3 Bft) 97,87 %
19.05.2019 20:54 15,8 C 15,0 C 14,4 C 85 % 1004,7 hPa 0,0 l/m 0 min 0 min 5 W/m 6,4 km/h (2 Bft) 97,83 %
19.05.2019 20:56 15,8 C 15,0 C 14,4 C 85 % 1004,7 hPa 0,0 l/m 0 min 0 min 5 W/m 16,1 km/h (3 Bft) 97,87 %
19.05.2019 20:58 15,8 C 14,4 C 14,4 C 85 % 1004,8 hPa 0,0 l/m 0 min 0 min 2 W/m 6,4 km/h (2 Bft) 97,87 %
19.05.2019 21:00 15,8 C 15,0 C 14,4 C 85 % 1004,8 hPa 0,0 l/m 0 min 0 min 0 W/m 9,7 km/h (2 Bft) 100,00 %
19.05.2019 21:02 15,8 C 15,0 C 14,4 C 86 % 1004,8 hPa 0,0 l/m 0 min 0 min 0 W/m 12,9 km/h (3 Bft) 100,00 %
19.05.2019 21:04 15,8 C 14,4 C 14,4 C 86 % 1004,8 hPa 0,0 l/m 0 min 0 min 0 W/m 9,7 km/h (2 Bft) 100,00 %
19.05.2019 21:06 15,8 C 15,0 C 14,4 C 86 % 1004,9 hPa 0,0 l/m 0 min 0 min 0 W/m 6,4 km/h (2 Bft) 100,00 %
19.05.2019 21:08 15,8 C 15,0 C 14,4 C 86 % 1004,9 hPa 0,0 l/m 0 min 0 min 0 W/m 9,7 km/h (2 Bft) 100,00 %
19.05.2019 21:10 15,8 C 15,0 C 14,4 C 86 % 1005,1 hPa 0,0 l/m 0 min 0 min 0 W/m 9,7 km/h (2 Bft) 97,87 %
19.05.2019 21:12 15,8 C 14,4 C 14,4 C 86 % 1005,2 hPa 0,0 l/m 0 min 0 min 0 W/m 9,7 km/h (2 Bft) 100,00 %
19.05.2019 21:14 15,7 C 15,0 C 14,4 C 86 % 1005,2 hPa 0,0 l/m 0 min 0 min 0 W/m 9,7 km/h (2 Bft) 100,00 %
19.05.2019 21:16 15,7 C 14,4 C 14,4 C 86 % 1005,1 hPa 0,0 l/m 0 min 0 min 0 W/m 6,4 km/h (2 Bft) 100,00 %
19.05.2019 21:18 15,7 C 14,4 C 14,4 C 86 % 1005,3 hPa 0,0 l/m 0 min 0 min 0 W/m 22,5 km/h (4 Bft) 100,00 %
19.05.2019 21:20 15,7 C 14,4 C 14,4 C 86 % 1005,3 hPa 0,0 l/m 0 min 0 min 0 W/m 12,9 km/h (3 Bft) 100,00 %
19.05.2019 21:22 15,7 C 14,4 C 14,4 C 86 % 1005,3 hPa 0,0 l/m 0 min 0 min 0 W/m 12,9 km/h (3 Bft) 100,00 %
19.05.2019 21:24 15,7 C 14,4 C 14,4 C 86 % 1005,3 hPa 0,0 l/m 0 min 0 min 0 W/m 9,7 km/h (2 Bft) 97,87 %
19.05.2019 21:26 15,7 C 15,0 C 14,4 C 86 % 1005,4 hPa 0,0 l/m 0 min 0 min 0 W/m 9,7 km/h (2 Bft) 100,00 %
19.05.2019 21:28 15,7 C 15,0 C 14,4 C 86 % 1005,4 hPa 0,0 l/m 0 min 0 min 0 W/m 3,2 km/h (1 Bft) 100,00 %
19.05.2019 21:30 15,7 C 14,4 C 14,4 C 86 % 1005,5 hPa 0,0 l/m 0 min 0 min 0 W/m 3,2 km/h (1 Bft) 97,83 %
19.05.2019 21:32 15,7 C 14,4 C 14,4 C 86 % 1005,5 hPa 0,0 l/m 0 min 0 min 0 W/m 9,7 km/h (2 Bft) 95,74 %
19.05.2019 21:34 15,7 C 14,4 C 14,4 C 86 % 1005,6 hPa 0,0 l/m 0 min 0 min 0 W/m 3,2 km/h (1 Bft) 95,74 %
19.05.2019 21:36 15,7 C 14,4 C 14,4 C 86 % 1005,5 hPa 0,0 l/m 0 min 0 min 0 W/m 6,4 km/h (2 Bft) 91,49 %
19.05.2019 21:38 15,7 C 14,4 C 14,4 C 86 % 1005,6 hPa 0,0 l/m 0 min 0 min 0 W/m 9,7 km/h (2 Bft) 95,74 %
19.05.2019 21:40 15,6 C 14,4 C 14,4 C 86 % 1005,6 hPa 0,0 l/m 0 min 0 min 0 W/m 6,4 km/h (2 Bft) 97,87 %
19.05.2019 21:42 15,6 C 14,4 C 14,4 C 87 % 1005,6 hPa 0,0 l/m 0 min 0 min 0 W/m 6,4 km/h (2 Bft) 97,83 %
19.05.2019 21:44 15,6 C 14,4 C 14,4 C 87 % 1005,6 hPa 0,0 l/m 0 min 0 min 0 W/m 9,7 km/h (2 Bft) 95,74 %
19.05.2019 21:46 15,6 C 14,4 C 14,4 C 87 % 1005,6 hPa 0,0 l/m 0 min 0 min 0 W/m 9,7 km/h (2 Bft) 93,62 %
19.05.2019 21:48 15,6 C 14,4 C 14,4 C 87 % 1005,7 hPa 0,0 l/m 0 min 0 min 0 W/m 6,4 km/h (2 Bft) 95,74 %
19.05.2019 21:50 15,6 C 14,4 C 14,4 C 87 % 1005,7 hPa 0,0 l/m 0 min 0 min 0 W/m 3,2 km/h (1 Bft) 97,87 %
19.05.2019 21:52 15,6 C 14,4 C 14,4 C 87 % 1005,6 hPa 0,0 l/m 0 min 0 min 0 W/m 9,7 km/h (2 Bft) 95,65 %
19.05.2019 21:54 15,6 C 14,4 C 14,4 C 87 % 1005,7 hPa 0,0 l/m 0 min 0 min 0 W/m 9,7 km/h (2 Bft) 95,74 %
19.05.2019 21:56 15,6 C 14,4 C 14,4 C 87 % 1005,7 hPa 0,0 l/m 0 min 0 min 0 W/m 6,4 km/h (2 Bft) 93,62 %
19.05.2019 21:58 15,6 C 14,4 C 14,4 C 87 % 1005,8 hPa 0,0 l/m 0 min 0 min 0 W/m 3,2 km/h (1 Bft) 95,74 %
19.05.2019 22:00 15,6 C 14,4 C 14,4 C 87 % 1005,7 hPa 0,0 l/m 0 min 0 min 0 W/m 0,0 km/h (0 Bft) 95,74 %
19.05.2019 22:02 15,6 C 14,4 C 14,4 C 87 % 1005,8 hPa 0,0 l/m 0 min 0 min 0 W/m 0,0 km/h (0 Bft) 92,68 %
19.05.2019 22:04 15,6 C 14,4 C 13,9 C 87 % 1005,8 hPa 0,0 l/m 0 min 0 min 0 W/m 0,0 km/h (0 Bft) 93,62 %
19.05.2019 22:06 15,6 C 14,4 C 13,9 C 87 % 1005,8 hPa 0,0 l/m 0 min 0 min 0 W/m 6,4 km/h (2 Bft) 94,83 %
19.05.2019 22:08 15,6 C 14,4 C 13,9 C 87 % 1005,8 hPa 0,0 l/m 0 min 0 min 0 W/m 3,2 km/h (1 Bft) 94,44 %
19.05.2019 22:10 15,6 C 14,4 C 13,9 C 87 % 1005,9 hPa 0,0 l/m 0 min 0 min 0 W/m 3,2 km/h (1 Bft) 95,65 %
19.05.2019 22:12 15,6 C 14,4 C 13,9 C 87 % 1005,9 hPa 0,0 l/m 0 min 0 min 0 W/m 12,9 km/h (3 Bft) 97,87 %
19.05.2019 22:14 15,5 C 14,4 C 13,9 C 87 % 1005,9 hPa 0,0 l/m 0 min 0 min 0 W/m 0,0 km/h (0 Bft) 95,74 %
19.05.2019 22:16 15,5 C 14,4 C 13,9 C 87 % 1005,9 hPa 0,0 l/m 0 min 0 min 0 W/m 0,0 km/h (0 Bft) 95,74 %
19.05.2019 22:18 15,4 C 13,9 C 13,9 C 87 % 1005,9 hPa 0,0 l/m 0 min 0 min 0 W/m 6,4 km/h (2 Bft) 95,74 %
19.05.2019 22:20 15,4 C 13,9 C 13,9 C 87 % 1005,9 hPa 0,0 l/m 0 min 0 min 0 W/m 3,2 km/h (1 Bft) 97,83 %
19.05.2019 22:22 15,4 C 13,9 C 13,9 C 87 % 1006,0 hPa 0,0 l/m 0 min 0 min 0 W/m 6,4 km/h (2 Bft) 97,87 %
19.05.2019 22:24 15,4 C 13,9 C 13,9 C 87 % 1006,0 hPa 0,0 l/m 0 min 0 min 0 W/m 0,0 km/h (0 Bft) 95,74 %
19.05.2019 22:26 15,4 C 14,4 C 13,9 C 87 % 1006,0 hPa 0,0 l/m 0 min 0 min 0 W/m 3,2 km/h (1 Bft) 97,87 %
19.05.2019 22:28 15,4 C 13,9 C 13,9 C 88 % 1005,9 hPa 0,0 l/m 0 min 0 min 0 W/m 0,0 km/h (0 Bft) 97,87 %
19.05.2019 22:30 15,4 C 13,9 C 13,9 C 88 % 1005,9 hPa 0,0 l/m 0 min 0 min 0 W/m 0,0 km/h (0 Bft) 95,74 %
19.05.2019 22:32 15,4 C 13,9 C 13,9 C 88 % 1005,9 hPa 0,0 l/m 0 min 0 min 0 W/m 3,2 km/h (1 Bft) 97,92 %
19.05.2019 22:34 15,3 C 13,9 C 13,9 C 88 % 1005,8 hPa 0,0 l/m 0 min 0 min 0 W/m 3,2 km/h (1 Bft) 95,65 %
19.05.2019 22:36 15,3 C 13,9 C 13,3 C 88 % 1005,9 hPa 0,0 l/m 0 min 0 min 0 W/m 0,0 km/h (0 Bft) 96,08 %
19.05.2019 22:38 15,3 C 13,9 C 13,3 C 88 % 1005,9 hPa 0,0 l/m 0 min 0 min 0 W/m 0,0 km/h (0 Bft) 97,62 %
19.05.2019 22:40 15,3 C 13,9 C 13,3 C 88 % 1005,9 hPa 0,0 l/m 0 min 0 min 0 W/m 0,0 km/h (0 Bft) 100,00 %
19.05.2019 22:42 15,3 C 13,3 C 13,3 C 88 % 1005,9 hPa 0,0 l/m 0 min 0 min 0 W/m 0,0 km/h (0 Bft) 100,00 %
19.05.2019 22:44 15,2 C 13,3 C 13,3 C 88 % 1005,9 hPa 0,0 l/m 0 min 0 min 0 W/m 0,0 km/h (0 Bft) 100,00 %
19.05.2019 22:46 15,2 C 13,3 C 12,8 C 88 % 1005,9 hPa 0,0 l/m 0 min 0 min 0 W/m 3,2 km/h (1 Bft) 97,87 %
19.05.2019 22:48 15,2 C 13,3 C 12,8 C 88 % 1005,9 hPa 0,0 l/m 0 min 0 min 0 W/m 3,2 km/h (1 Bft) 100,00 %
19.05.2019 22:50 15,2 C 13,3 C 12,8 C 88 % 1005,9 hPa 0,0 l/m 0 min 0 min 0 W/m 3,2 km/h (1 Bft) 97,87 %
19.05.2019 22:52 15,1 C 13,3 C 12,8 C 88 % 1005,8 hPa 0,0 l/m 0 min 0 min 0 W/m 0,0 km/h (0 Bft) 100,00 %
19.05.2019 22:54 15,1 C 13,3 C 12,8 C 88 % 1005,8 hPa 0,0 l/m 0 min 0 min 0 W/m 0,0 km/h (0 Bft) 100,00 %
19.05.2019 22:56 15,1 C 13,3 C 12,8 C 88 % 1005,8 hPa 0,0 l/m 0 min 0 min 0 W/m 0,0 km/h (0 Bft) 100,00 %
19.05.2019 22:58 15,0 C 13,3 C 12,8 C 88 % 1005,8 hPa 0,0 l/m 0 min 0 min 0 W/m 0,0 km/h (0 Bft) 100,00 %
19.05.2019 23:00 15,0 C 13,3 C 12,8 C 88 % 1005,9 hPa 0,0 l/m 0 min 0 min 0 W/m 0,0 km/h (0 Bft) 97,87 %
19.05.2019 23:02 15,0 C 13,3 C 12,8 C 88 % 1005,9 hPa 0,0 l/m 0 min 0 min 0 W/m 0,0 km/h (0 Bft) 100,00 %
19.05.2019 23:04 14,9 C 12,8 C 12,8 C 88 % 1005,9 hPa 0,0 l/m 0 min 0 min 0 W/m 0,0 km/h (0 Bft) 100,00 %
19.05.2019 23:06 14,9 C 12,8 C 12,8 C 88 % 1005,9 hPa 0,0 l/m 0 min 0 min 0 W/m 0,0 km/h (0 Bft) 100,00 %
19.05.2019 23:08 14,9 C 12,8 C 12,8 C 88 % 1005,9 hPa 0,0 l/m 0 min 0 min 0 W/m 0,0 km/h (0 Bft) 100,00 %
19.05.2019 23:10 14,9 C 12,8 C 12,2 C 88 % 1005,9 hPa 0,0 l/m 0 min 0 min 0 W/m 0,0 km/h (0 Bft) 100,00 %
19.05.2019 23:12 14,8 C 12,8 C 12,2 C 88 % 1005,9 hPa 0,0 l/m 0 min 0 min 0 W/m 0,0 km/h (0 Bft) 100,00 %
19.05.2019 23:14 14,8 C 12,8 C 12,2 C 88 % 1006,0 hPa 0,0 l/m 0 min 0 min 0 W/m 0,0 km/h (0 Bft) 97,87 %
19.05.2019 23:16 14,8 C 12,8 C 12,2 C 88 % 1006,0 hPa 0,0 l/m 0 min 0 min 0 W/m 0,0 km/h (0 Bft) 97,92 %
19.05.2019 23:18 14,7 C 12,8 C 12,2 C 88 % 1005,9 hPa 0,0 l/m 0 min 0 min 0 W/m 0,0 km/h (0 Bft) 100,00 %
19.05.2019 23:20 14,7 C 12,2 C 12,2 C 88 % 1005,9 hPa 0,0 l/m 0 min 0 min 0 W/m 0,0 km/h (0 Bft) 100,00 %
19.05.2019 23:22 14,7 C 12,2 C 12,2 C 88 % 1005,9 hPa 0,0 l/m 0 min 0 min 0 W/m 0,0 km/h (0 Bft) 100,00 %
19.05.2019 23:24 14,6 C 12,2 C 12,2 C 88 % 1006,0 hPa 0,0 l/m 0 min 0 min 0 W/m 0,0 km/h (0 Bft) 97,87 %
19.05.2019 23:26 14,6 C 12,2 C 12,2 C 88 % 1006,0 hPa 0,0 l/m 0 min 0 min 0 W/m 0,0 km/h (0 Bft) 100,00 %
19.05.2019 23:28 14,5 C 12,2 C 11,7 C 88 % 1006,0 hPa 0,0 l/m 0 min 0 min 0 W/m 0,0 km/h (0 Bft) 100,00 %
19.05.2019 23:30 14,5 C 12,2 C 11,7 C 88 % 1006,0 hPa 0,0 l/m 0 min 0 min 0 W/m 0,0 km/h (0 Bft) 100,00 %
19.05.2019 23:32 14,4 C 12,2 C 11,7 C 88 % 1006,0 hPa 0,0 l/m 0 min 0 min 0 W/m 0,0 km/h (0 Bft) 100,00 %
19.05.2019 23:34 14,4 C 12,2 C 11,7 C 88 % 1006,0 hPa 0,0 l/m 0 min 0 min 0 W/m 0,0 km/h (0 Bft) 100,00 %
19.05.2019 23:36 14,3 C 12,2 C 11,7 C 88 % 1006,0 hPa 0,0 l/m 0 min 0 min 0 W/m 0,0 km/h (0 Bft) 100,00 %
19.05.2019 23:38 14,3 C 12,2 C 11,7 C 88 % 1005,9 hPa 0,0 l/m 0 min 0 min 0 W/m 0,0 km/h (0 Bft) 100,00 %
19.05.2019 23:40 14,2 C 12,2 C 11,7 C 88 % 1005,9 hPa 0,0 l/m 0 min 0 min 0 W/m 0,0 km/h (0 Bft) 100,00 %
19.05.2019 23:42 14,2 C 12,2 C 11,7 C 88 % 1005,9 hPa 0,0 l/m 0 min 0 min 0 W/m 0,0 km/h (0 Bft) 100,00 %
19.05.2019 23:44 14,2 C 12,2 C 11,7 C 88 % 1005,8 hPa 0,0 l/m 0 min 0 min 0 W/m 0,0 km/h (0 Bft) 97,87 %
19.05.2019 23:46 14,2 C 12,2 C 11,7 C 88 % 1005,9 hPa 0,0 l/m 0 min 0 min 0 W/m 0,0 km/h (0 Bft) 97,87 %
19.05.2019 23:48 14,2 C 12,2 C 11,7 C 88 % 1005,9 hPa 0,0 l/m 0 min 0 min 0 W/m 0,0 km/h (0 Bft) 97,87 %
19.05.2019 23:50 14,2 C 12,2 C 11,7 C 89 % 1005,9 hPa 0,0 l/m 0 min 0 min 0 W/m 0,0 km/h (0 Bft) 97,87 %
19.05.2019 23:52 14,2 C 12,2 C 11,7 C 89 % 1005,9 hPa 0,0 l/m 0 min 0 min 0 W/m 0,0 km/h (0 Bft) 97,87 %
19.05.2019 23:54 14,1 C 12,2 C 11,7 C 89 % 1005,9 hPa 0,0 l/m 0 min 0 min 0 W/m 0,0 km/h (0 Bft) 97,83 %
19.05.2019 23:56 14,0 C 12,2 C 11,7 C 89 % 1005,9 hPa 0,0 l/m 0 min 0 min 0 W/m 0,0 km/h (0 Bft) 95,74 %
19.05.2019 23:58 14,0 C 12,2 C 11,7 C 89 % 1005,9 hPa 0,0 l/m 0 min 0 min 0 W/m 0,0 km/h (0 Bft) 95,74 %
_ Min-Zeit 06:18 05:48 05:20 14:56 16:12 - - - - 00:00 00:24
Minimum _ 12,3 C 10,6 C 10,6 C 55 % 1003,9 hPa - - - - 0,0 km/h (0 Bft) 89,80 %
_ Max-Zeit 14:54 12:46 12:44 08:36 00:00 00:40 10:34 00:08 14:28 16:50 00:02
Maximum _ 24,9 C 31,1 C 30,6 C 98 % 1006,8 hPa 0,2 l/m 4 min 4 min 926 W/m 35,4 km/h
O-SO (5 Bft)
100,00 %
Durchschnitt _ 17,1 C 17,5 C 16,7 C 83 % 1005,2 hPa #0,8 l/m #5:16 h #56 min. 278 W/m 4,7 km/h (1 Bft) 97,57 %
© 2019 W. Hausmann